<?xml version="1.0" encoding="UTF-8" standalone="no" ?>
<gpx xmlns="http://www.topografix.com/GPX/1/1" xmlns:xsi="http://www.w3.org/2001/XMLSchema-instance" xsi:schemaLocation="http://www.topografix.com/GPX/1/1 http://www.topografix.com/GPX/1/1/gpx.xsd" version="1.1" creator="VisuGPX - https://www.visugpx.com">
  <metadata>
    <name>VTC_Moselle_Talange</name>
  </metadata>
  <trk>
    <name><![CDATA[20-JUIL-19 13:26:13]]></name>
    <trkseg>
      <trkpt lat="49.10187" lon="6.08735">
        <ele>232</ele>
        <time>2019-07-20T07:34:36Z</time>
      </trkpt>
      <trkpt lat="49.10186" lon="6.08736">
        <ele>232</ele>
        <time>2019-07-20T07:34:47Z</time>
      </trkpt>
      <trkpt lat="49.10186" lon="6.08736">
        <ele>232</ele>
        <time>2019-07-20T07:34:52Z</time>
      </trkpt>
      <trkpt lat="49.10194" lon="6.08749">
        <ele>233</ele>
        <time>2019-07-20T07:35:12Z</time>
      </trkpt>
      <trkpt lat="49.10208" lon="6.08763">
        <ele>230</ele>
        <time>2019-07-20T07:35:16Z</time>
      </trkpt>
      <trkpt lat="49.10234" lon="6.08777">
        <ele>230</ele>
        <time>2019-07-20T07:35:21Z</time>
      </trkpt>
      <trkpt lat="49.10252" lon="6.08789">
        <ele>231</ele>
        <time>2019-07-20T07:35:24Z</time>
      </trkpt>
      <trkpt lat="49.10319" lon="6.08861">
        <ele>226</ele>
        <time>2019-07-20T07:35:35Z</time>
      </trkpt>
      <trkpt lat="49.10407" lon="6.08933">
        <ele>221</ele>
        <time>2019-07-20T07:35:46Z</time>
      </trkpt>
      <trkpt lat="49.10473" lon="6.08951">
        <ele>219</ele>
        <time>2019-07-20T07:35:53Z</time>
      </trkpt>
      <trkpt lat="49.10508" lon="6.09022">
        <ele>217</ele>
        <time>2019-07-20T07:36:00Z</time>
      </trkpt>
      <trkpt lat="49.10509" lon="6.09037">
        <ele>217</ele>
        <time>2019-07-20T07:36:01Z</time>
      </trkpt>
      <trkpt lat="49.10514" lon="6.0915">
        <ele>214</ele>
        <time>2019-07-20T07:36:09Z</time>
      </trkpt>
      <trkpt lat="49.10514" lon="6.09254">
        <ele>211</ele>
        <time>2019-07-20T07:36:19Z</time>
      </trkpt>
      <trkpt lat="49.10514" lon="6.09287">
        <ele>213</ele>
        <time>2019-07-20T07:36:23Z</time>
      </trkpt>
      <trkpt lat="49.10513" lon="6.09312">
        <ele>213</ele>
        <time>2019-07-20T07:36:26Z</time>
      </trkpt>
      <trkpt lat="49.10514" lon="6.0938">
        <ele>215</ele>
        <time>2019-07-20T07:36:34Z</time>
      </trkpt>
      <trkpt lat="49.1051" lon="6.09445">
        <ele>217</ele>
        <time>2019-07-20T07:36:42Z</time>
      </trkpt>
      <trkpt lat="49.10508" lon="6.09505">
        <ele>217</ele>
        <time>2019-07-20T07:36:50Z</time>
      </trkpt>
      <trkpt lat="49.10505" lon="6.09545">
        <ele>218</ele>
        <time>2019-07-20T07:36:55Z</time>
      </trkpt>
      <trkpt lat="49.10509" lon="6.09593">
        <ele>219</ele>
        <time>2019-07-20T07:37:01Z</time>
      </trkpt>
      <trkpt lat="49.1051" lon="6.09615">
        <ele>219</ele>
        <time>2019-07-20T07:37:04Z</time>
      </trkpt>
      <trkpt lat="49.1051" lon="6.09642">
        <ele>219</ele>
        <time>2019-07-20T07:37:08Z</time>
      </trkpt>
      <trkpt lat="49.10508" lon="6.09665">
        <ele>219</ele>
        <time>2019-07-20T07:37:12Z</time>
      </trkpt>
      <trkpt lat="49.10518" lon="6.09714">
        <ele>219</ele>
        <time>2019-07-20T07:37:23Z</time>
      </trkpt>
      <trkpt lat="49.10535" lon="6.09777">
        <ele>218</ele>
        <time>2019-07-20T07:37:36Z</time>
      </trkpt>
      <trkpt lat="49.10553" lon="6.09832">
        <ele>218</ele>
        <time>2019-07-20T07:37:49Z</time>
      </trkpt>
      <trkpt lat="49.10561" lon="6.09855">
        <ele>217</ele>
        <time>2019-07-20T07:37:57Z</time>
      </trkpt>
      <trkpt lat="49.10565" lon="6.0986">
        <ele>217</ele>
        <time>2019-07-20T07:38:18Z</time>
      </trkpt>
      <trkpt lat="49.10596" lon="6.09912">
        <ele>218</ele>
        <time>2019-07-20T07:38:25Z</time>
      </trkpt>
      <trkpt lat="49.10627" lon="6.09967">
        <ele>211</ele>
        <time>2019-07-20T07:38:29Z</time>
      </trkpt>
      <trkpt lat="49.10642" lon="6.10052">
        <ele>205</ele>
        <time>2019-07-20T07:38:33Z</time>
      </trkpt>
      <trkpt lat="49.10618" lon="6.10323">
        <ele>183</ele>
        <time>2019-07-20T07:38:45Z</time>
      </trkpt>
      <trkpt lat="49.10599" lon="6.10451">
        <ele>175</ele>
        <time>2019-07-20T07:38:51Z</time>
      </trkpt>
      <trkpt lat="49.10591" lon="6.10543">
        <ele>172</ele>
        <time>2019-07-20T07:38:56Z</time>
      </trkpt>
      <trkpt lat="49.10591" lon="6.10591">
        <ele>170</ele>
        <time>2019-07-20T07:38:59Z</time>
      </trkpt>
      <trkpt lat="49.10603" lon="6.10661">
        <ele>169</ele>
        <time>2019-07-20T07:39:05Z</time>
      </trkpt>
      <trkpt lat="49.10598" lon="6.10688">
        <ele>169</ele>
        <time>2019-07-20T07:39:11Z</time>
      </trkpt>
      <trkpt lat="49.10601" lon="6.10719">
        <ele>170</ele>
        <time>2019-07-20T07:39:17Z</time>
      </trkpt>
      <trkpt lat="49.10601" lon="6.10748">
        <ele>170</ele>
        <time>2019-07-20T07:39:21Z</time>
      </trkpt>
      <trkpt lat="49.106" lon="6.1079">
        <ele>171</ele>
        <time>2019-07-20T07:39:27Z</time>
      </trkpt>
      <trkpt lat="49.10607" lon="6.10825">
        <ele>171</ele>
        <time>2019-07-20T07:39:32Z</time>
      </trkpt>
      <trkpt lat="49.10617" lon="6.10869">
        <ele>170</ele>
        <time>2019-07-20T07:39:42Z</time>
      </trkpt>
      <trkpt lat="49.10623" lon="6.10884">
        <ele>170</ele>
        <time>2019-07-20T07:39:46Z</time>
      </trkpt>
      <trkpt lat="49.10628" lon="6.10911">
        <ele>170</ele>
        <time>2019-07-20T07:39:50Z</time>
      </trkpt>
      <trkpt lat="49.1063" lon="6.10942">
        <ele>170</ele>
        <time>2019-07-20T07:39:54Z</time>
      </trkpt>
      <trkpt lat="49.10633" lon="6.11026">
        <ele>169</ele>
        <time>2019-07-20T07:40:07Z</time>
      </trkpt>
      <trkpt lat="49.10634" lon="6.11026">
        <ele>169</ele>
        <time>2019-07-20T07:40:26Z</time>
      </trkpt>
      <trkpt lat="49.10636" lon="6.11027">
        <ele>169</ele>
        <time>2019-07-20T07:40:42Z</time>
      </trkpt>
      <trkpt lat="49.10636" lon="6.11056">
        <ele>169</ele>
        <time>2019-07-20T07:40:48Z</time>
      </trkpt>
      <trkpt lat="49.10637" lon="6.11064">
        <ele>169</ele>
        <time>2019-07-20T07:40:49Z</time>
      </trkpt>
      <trkpt lat="49.1067" lon="6.11242">
        <ele>167</ele>
        <time>2019-07-20T07:41:08Z</time>
      </trkpt>
      <trkpt lat="49.10704" lon="6.11416">
        <ele>167</ele>
        <time>2019-07-20T07:41:24Z</time>
      </trkpt>
      <trkpt lat="49.10736" lon="6.11571">
        <ele>167</ele>
        <time>2019-07-20T07:41:38Z</time>
      </trkpt>
      <trkpt lat="49.10771" lon="6.1172">
        <ele>168</ele>
        <time>2019-07-20T07:41:52Z</time>
      </trkpt>
      <trkpt lat="49.10807" lon="6.1189">
        <ele>167</ele>
        <time>2019-07-20T07:42:08Z</time>
      </trkpt>
      <trkpt lat="49.10836" lon="6.1203">
        <ele>167</ele>
        <time>2019-07-20T07:42:21Z</time>
      </trkpt>
      <trkpt lat="49.10845" lon="6.12073">
        <ele>167</ele>
        <time>2019-07-20T07:42:25Z</time>
      </trkpt>
      <trkpt lat="49.1085" lon="6.12093">
        <ele>167</ele>
        <time>2019-07-20T07:42:27Z</time>
      </trkpt>
      <trkpt lat="49.1085" lon="6.12139">
        <ele>167</ele>
        <time>2019-07-20T07:42:36Z</time>
      </trkpt>
      <trkpt lat="49.10861" lon="6.12167">
        <ele>167</ele>
        <time>2019-07-20T07:42:44Z</time>
      </trkpt>
      <trkpt lat="49.10862" lon="6.12179">
        <ele>167</ele>
        <time>2019-07-20T07:42:46Z</time>
      </trkpt>
      <trkpt lat="49.10886" lon="6.12297">
        <ele>168</ele>
        <time>2019-07-20T07:43:00Z</time>
      </trkpt>
      <trkpt lat="49.10923" lon="6.12435">
        <ele>168</ele>
        <time>2019-07-20T07:43:15Z</time>
      </trkpt>
      <trkpt lat="49.10959" lon="6.12589">
        <ele>166</ele>
        <time>2019-07-20T07:43:31Z</time>
      </trkpt>
      <trkpt lat="49.11" lon="6.12726">
        <ele>166</ele>
        <time>2019-07-20T07:43:46Z</time>
      </trkpt>
      <trkpt lat="49.11036" lon="6.12844">
        <ele>166</ele>
        <time>2019-07-20T07:43:59Z</time>
      </trkpt>
      <trkpt lat="49.11086" lon="6.12989">
        <ele>167</ele>
        <time>2019-07-20T07:44:14Z</time>
      </trkpt>
      <trkpt lat="49.11136" lon="6.13132">
        <ele>167</ele>
        <time>2019-07-20T07:44:29Z</time>
      </trkpt>
      <trkpt lat="49.11189" lon="6.13269">
        <ele>168</ele>
        <time>2019-07-20T07:44:44Z</time>
      </trkpt>
      <trkpt lat="49.11231" lon="6.134">
        <ele>168</ele>
        <time>2019-07-20T07:44:58Z</time>
      </trkpt>
      <trkpt lat="49.11278" lon="6.13538">
        <ele>169</ele>
        <time>2019-07-20T07:45:13Z</time>
      </trkpt>
      <trkpt lat="49.11307" lon="6.13617">
        <ele>169</ele>
        <time>2019-07-20T07:45:23Z</time>
      </trkpt>
      <trkpt lat="49.11304" lon="6.13599">
        <ele>169</ele>
        <time>2019-07-20T07:45:32Z</time>
      </trkpt>
      <trkpt lat="49.11306" lon="6.13596">
        <ele>170</ele>
        <time>2019-07-20T07:45:42Z</time>
      </trkpt>
      <trkpt lat="49.11309" lon="6.13595">
        <ele>170</ele>
        <time>2019-07-20T07:46:07Z</time>
      </trkpt>
      <trkpt lat="49.11308" lon="6.13594">
        <ele>170</ele>
        <time>2019-07-20T07:46:13Z</time>
      </trkpt>
      <trkpt lat="49.11311" lon="6.13605">
        <ele>169</ele>
        <time>2019-07-20T07:46:17Z</time>
      </trkpt>
      <trkpt lat="49.11315" lon="6.13617">
        <ele>169</ele>
        <time>2019-07-20T07:46:19Z</time>
      </trkpt>
      <trkpt lat="49.11334" lon="6.13673">
        <ele>169</ele>
        <time>2019-07-20T07:46:27Z</time>
      </trkpt>
      <trkpt lat="49.11347" lon="6.13705">
        <ele>168</ele>
        <time>2019-07-20T07:46:32Z</time>
      </trkpt>
      <trkpt lat="49.11352" lon="6.1372">
        <ele>168</ele>
        <time>2019-07-20T07:46:34Z</time>
      </trkpt>
      <trkpt lat="49.11383" lon="6.13817">
        <ele>167</ele>
        <time>2019-07-20T07:46:46Z</time>
      </trkpt>
      <trkpt lat="49.11421" lon="6.1393">
        <ele>167</ele>
        <time>2019-07-20T07:46:57Z</time>
      </trkpt>
      <trkpt lat="49.11425" lon="6.13941">
        <ele>167</ele>
        <time>2019-07-20T07:46:58Z</time>
      </trkpt>
      <trkpt lat="49.11466" lon="6.1401">
        <ele>168</ele>
        <time>2019-07-20T07:47:06Z</time>
      </trkpt>
      <trkpt lat="49.1149" lon="6.14035">
        <ele>168</ele>
        <time>2019-07-20T07:47:10Z</time>
      </trkpt>
      <trkpt lat="49.11607" lon="6.1411">
        <ele>167</ele>
        <time>2019-07-20T07:47:26Z</time>
      </trkpt>
      <trkpt lat="49.11704" lon="6.14202">
        <ele>167</ele>
        <time>2019-07-20T07:47:40Z</time>
      </trkpt>
      <trkpt lat="49.11793" lon="6.14298">
        <ele>169</ele>
        <time>2019-07-20T07:47:54Z</time>
      </trkpt>
      <trkpt lat="49.11843" lon="6.14361">
        <ele>168</ele>
        <time>2019-07-20T07:48:03Z</time>
      </trkpt>
      <trkpt lat="49.11877" lon="6.14404">
        <ele>168</ele>
        <time>2019-07-20T07:48:09Z</time>
      </trkpt>
      <trkpt lat="49.11962" lon="6.14521">
        <ele>166</ele>
        <time>2019-07-20T07:48:25Z</time>
      </trkpt>
      <trkpt lat="49.12007" lon="6.14606">
        <ele>167</ele>
        <time>2019-07-20T07:48:36Z</time>
      </trkpt>
      <trkpt lat="49.12027" lon="6.14661">
        <ele>167</ele>
        <time>2019-07-20T07:48:43Z</time>
      </trkpt>
      <trkpt lat="49.12056" lon="6.14648">
        <ele>167</ele>
        <time>2019-07-20T07:48:49Z</time>
      </trkpt>
      <trkpt lat="49.12121" lon="6.14526">
        <ele>166</ele>
        <time>2019-07-20T07:49:04Z</time>
      </trkpt>
      <trkpt lat="49.12134" lon="6.14504">
        <ele>166</ele>
        <time>2019-07-20T07:49:07Z</time>
      </trkpt>
      <trkpt lat="49.12157" lon="6.14515">
        <ele>166</ele>
        <time>2019-07-20T07:49:13Z</time>
      </trkpt>
      <trkpt lat="49.12183" lon="6.14552">
        <ele>166</ele>
        <time>2019-07-20T07:49:19Z</time>
      </trkpt>
      <trkpt lat="49.12203" lon="6.14544">
        <ele>166</ele>
        <time>2019-07-20T07:49:24Z</time>
      </trkpt>
      <trkpt lat="49.12226" lon="6.14498">
        <ele>167</ele>
        <time>2019-07-20T07:49:34Z</time>
      </trkpt>
      <trkpt lat="49.12245" lon="6.14449">
        <ele>167</ele>
        <time>2019-07-20T07:49:43Z</time>
      </trkpt>
      <trkpt lat="49.12252" lon="6.14452">
        <ele>169</ele>
        <time>2019-07-20T07:49:47Z</time>
      </trkpt>
      <trkpt lat="49.1229" lon="6.145">
        <ele>168</ele>
        <time>2019-07-20T07:49:55Z</time>
      </trkpt>
      <trkpt lat="49.12367" lon="6.14571">
        <ele>168</ele>
        <time>2019-07-20T07:50:10Z</time>
      </trkpt>
      <trkpt lat="49.12398" lon="6.14601">
        <ele>167</ele>
        <time>2019-07-20T07:50:19Z</time>
      </trkpt>
      <trkpt lat="49.12405" lon="6.14592">
        <ele>167</ele>
        <time>2019-07-20T07:50:23Z</time>
      </trkpt>
      <trkpt lat="49.12408" lon="6.1458">
        <ele>168</ele>
        <time>2019-07-20T07:50:29Z</time>
      </trkpt>
      <trkpt lat="49.12408" lon="6.14569">
        <ele>168</ele>
        <time>2019-07-20T07:50:33Z</time>
      </trkpt>
      <trkpt lat="49.12422" lon="6.14529">
        <ele>169</ele>
        <time>2019-07-20T07:50:40Z</time>
      </trkpt>
      <trkpt lat="49.1243" lon="6.14502">
        <ele>169</ele>
        <time>2019-07-20T07:50:44Z</time>
      </trkpt>
      <trkpt lat="49.12436" lon="6.14481">
        <ele>170</ele>
        <time>2019-07-20T07:50:47Z</time>
      </trkpt>
      <trkpt lat="49.12441" lon="6.14468">
        <ele>170</ele>
        <time>2019-07-20T07:50:49Z</time>
      </trkpt>
      <trkpt lat="49.12451" lon="6.14456">
        <ele>171</ele>
        <time>2019-07-20T07:50:52Z</time>
      </trkpt>
      <trkpt lat="49.12477" lon="6.14461">
        <ele>170</ele>
        <time>2019-07-20T07:50:57Z</time>
      </trkpt>
      <trkpt lat="49.12514" lon="6.14477">
        <ele>171</ele>
        <time>2019-07-20T07:51:03Z</time>
      </trkpt>
      <trkpt lat="49.12604" lon="6.14501">
        <ele>170</ele>
        <time>2019-07-20T07:51:16Z</time>
      </trkpt>
      <trkpt lat="49.12674" lon="6.14516">
        <ele>170</ele>
        <time>2019-07-20T07:51:26Z</time>
      </trkpt>
      <trkpt lat="49.12755" lon="6.14506">
        <ele>170</ele>
        <time>2019-07-20T07:51:38Z</time>
      </trkpt>
      <trkpt lat="49.12791" lon="6.14501">
        <ele>171</ele>
        <time>2019-07-20T07:51:44Z</time>
      </trkpt>
      <trkpt lat="49.12837" lon="6.145">
        <ele>172</ele>
        <time>2019-07-20T07:51:55Z</time>
      </trkpt>
      <trkpt lat="49.12839" lon="6.145">
        <ele>172</ele>
        <time>2019-07-20T07:52:06Z</time>
      </trkpt>
      <trkpt lat="49.12839" lon="6.145">
        <ele>172</ele>
        <time>2019-07-20T07:52:23Z</time>
      </trkpt>
      <trkpt lat="49.12856" lon="6.14513">
        <ele>172</ele>
        <time>2019-07-20T07:52:30Z</time>
      </trkpt>
      <trkpt lat="49.12933" lon="6.14534">
        <ele>171</ele>
        <time>2019-07-20T07:52:43Z</time>
      </trkpt>
      <trkpt lat="49.12982" lon="6.14544">
        <ele>170</ele>
        <time>2019-07-20T07:52:50Z</time>
      </trkpt>
      <trkpt lat="49.1301" lon="6.14546">
        <ele>170</ele>
        <time>2019-07-20T07:52:54Z</time>
      </trkpt>
      <trkpt lat="49.13022" lon="6.14543">
        <ele>170</ele>
        <time>2019-07-20T07:53:00Z</time>
      </trkpt>
      <trkpt lat="49.12995" lon="6.14574">
        <ele>169</ele>
        <time>2019-07-20T07:53:07Z</time>
      </trkpt>
      <trkpt lat="49.12952" lon="6.147">
        <ele>168</ele>
        <time>2019-07-20T07:53:21Z</time>
      </trkpt>
      <trkpt lat="49.12943" lon="6.14725">
        <ele>168</ele>
        <time>2019-07-20T07:53:25Z</time>
      </trkpt>
      <trkpt lat="49.12943" lon="6.14737">
        <ele>168</ele>
        <time>2019-07-20T07:53:30Z</time>
      </trkpt>
      <trkpt lat="49.12937" lon="6.14779">
        <ele>167</ele>
        <time>2019-07-20T07:53:37Z</time>
      </trkpt>
      <trkpt lat="49.12933" lon="6.14825">
        <ele>167</ele>
        <time>2019-07-20T07:53:43Z</time>
      </trkpt>
      <trkpt lat="49.1295" lon="6.14849">
        <ele>167</ele>
        <time>2019-07-20T07:53:49Z</time>
      </trkpt>
      <trkpt lat="49.13021" lon="6.14888">
        <ele>166</ele>
        <time>2019-07-20T07:54:01Z</time>
      </trkpt>
      <trkpt lat="49.13039" lon="6.14882">
        <ele>166</ele>
        <time>2019-07-20T07:54:08Z</time>
      </trkpt>
      <trkpt lat="49.1304" lon="6.14871">
        <ele>166</ele>
        <time>2019-07-20T07:54:10Z</time>
      </trkpt>
      <trkpt lat="49.13062" lon="6.14797">
        <ele>166</ele>
        <time>2019-07-20T07:54:22Z</time>
      </trkpt>
      <trkpt lat="49.13081" lon="6.14745">
        <ele>166</ele>
        <time>2019-07-20T07:54:30Z</time>
      </trkpt>
      <trkpt lat="49.13101" lon="6.14738">
        <ele>166</ele>
        <time>2019-07-20T07:54:35Z</time>
      </trkpt>
      <trkpt lat="49.13138" lon="6.14766">
        <ele>167</ele>
        <time>2019-07-20T07:54:42Z</time>
      </trkpt>
      <trkpt lat="49.13196" lon="6.14811">
        <ele>166</ele>
        <time>2019-07-20T07:54:52Z</time>
      </trkpt>
      <trkpt lat="49.13199" lon="6.14843">
        <ele>166</ele>
        <time>2019-07-20T07:54:58Z</time>
      </trkpt>
      <trkpt lat="49.13169" lon="6.14929">
        <ele>167</ele>
        <time>2019-07-20T07:55:09Z</time>
      </trkpt>
      <trkpt lat="49.13154" lon="6.14976">
        <ele>167</ele>
        <time>2019-07-20T07:55:15Z</time>
      </trkpt>
      <trkpt lat="49.1315" lon="6.15009">
        <ele>167</ele>
        <time>2019-07-20T07:55:22Z</time>
      </trkpt>
      <trkpt lat="49.13165" lon="6.15004">
        <ele>167</ele>
        <time>2019-07-20T07:55:25Z</time>
      </trkpt>
      <trkpt lat="49.13225" lon="6.14995">
        <ele>166</ele>
        <time>2019-07-20T07:55:35Z</time>
      </trkpt>
      <trkpt lat="49.13263" lon="6.14995">
        <ele>166</ele>
        <time>2019-07-20T07:55:43Z</time>
      </trkpt>
      <trkpt lat="49.13354" lon="6.14989">
        <ele>166</ele>
        <time>2019-07-20T07:55:57Z</time>
      </trkpt>
      <trkpt lat="49.13447" lon="6.15013">
        <ele>165</ele>
        <time>2019-07-20T07:56:12Z</time>
      </trkpt>
      <trkpt lat="49.13474" lon="6.15035">
        <ele>165</ele>
        <time>2019-07-20T07:56:18Z</time>
      </trkpt>
      <trkpt lat="49.13474" lon="6.1505">
        <ele>165</ele>
        <time>2019-07-20T07:56:26Z</time>
      </trkpt>
      <trkpt lat="49.13474" lon="6.15052">
        <ele>165</ele>
        <time>2019-07-20T07:56:35Z</time>
      </trkpt>
      <trkpt lat="49.13478" lon="6.15062">
        <ele>165</ele>
        <time>2019-07-20T07:56:43Z</time>
      </trkpt>
      <trkpt lat="49.13477" lon="6.15068">
        <ele>164</ele>
        <time>2019-07-20T07:56:55Z</time>
      </trkpt>
      <trkpt lat="49.13477" lon="6.15068">
        <ele>164</ele>
        <time>2019-07-20T07:57:13Z</time>
      </trkpt>
      <trkpt lat="49.13478" lon="6.15068">
        <ele>164</ele>
        <time>2019-07-20T07:57:41Z</time>
      </trkpt>
      <trkpt lat="49.13477" lon="6.15067">
        <ele>164</ele>
        <time>2019-07-20T07:58:07Z</time>
      </trkpt>
      <trkpt lat="49.13478" lon="6.15067">
        <ele>164</ele>
        <time>2019-07-20T07:58:41Z</time>
      </trkpt>
      <trkpt lat="49.13478" lon="6.15067">
        <ele>164</ele>
        <time>2019-07-20T07:59:10Z</time>
      </trkpt>
      <trkpt lat="49.13478" lon="6.15067">
        <ele>164</ele>
        <time>2019-07-20T07:59:31Z</time>
      </trkpt>
      <trkpt lat="49.13479" lon="6.15066">
        <ele>164</ele>
        <time>2019-07-20T07:59:40Z</time>
      </trkpt>
      <trkpt lat="49.13482" lon="6.15056">
        <ele>165</ele>
        <time>2019-07-20T07:59:45Z</time>
      </trkpt>
      <trkpt lat="49.13499" lon="6.15023">
        <ele>165</ele>
        <time>2019-07-20T07:59:53Z</time>
      </trkpt>
      <trkpt lat="49.13544" lon="6.14938">
        <ele>165</ele>
        <time>2019-07-20T08:00:08Z</time>
      </trkpt>
      <trkpt lat="49.13555" lon="6.14919">
        <ele>165</ele>
        <time>2019-07-20T08:00:11Z</time>
      </trkpt>
      <trkpt lat="49.13596" lon="6.1482">
        <ele>168</ele>
        <time>2019-07-20T08:00:26Z</time>
      </trkpt>
      <trkpt lat="49.13592" lon="6.14819">
        <ele>168</ele>
        <time>2019-07-20T08:00:30Z</time>
      </trkpt>
      <trkpt lat="49.13574" lon="6.14867">
        <ele>166</ele>
        <time>2019-07-20T08:00:41Z</time>
      </trkpt>
      <trkpt lat="49.13571" lon="6.14874">
        <ele>166</ele>
        <time>2019-07-20T08:00:42Z</time>
      </trkpt>
      <trkpt lat="49.13521" lon="6.14974">
        <ele>165</ele>
        <time>2019-07-20T08:00:55Z</time>
      </trkpt>
      <trkpt lat="49.13491" lon="6.15028">
        <ele>165</ele>
        <time>2019-07-20T08:01:03Z</time>
      </trkpt>
      <trkpt lat="49.1347" lon="6.15027">
        <ele>165</ele>
        <time>2019-07-20T08:01:08Z</time>
      </trkpt>
      <trkpt lat="49.13448" lon="6.15011">
        <ele>165</ele>
        <time>2019-07-20T08:01:13Z</time>
      </trkpt>
      <trkpt lat="49.13396" lon="6.14991">
        <ele>166</ele>
        <time>2019-07-20T08:01:23Z</time>
      </trkpt>
      <trkpt lat="49.13337" lon="6.14987">
        <ele>166</ele>
        <time>2019-07-20T08:01:34Z</time>
      </trkpt>
      <trkpt lat="49.13319" lon="6.14989">
        <ele>166</ele>
        <time>2019-07-20T08:01:38Z</time>
      </trkpt>
      <trkpt lat="49.13293" lon="6.1499">
        <ele>166</ele>
        <time>2019-07-20T08:01:44Z</time>
      </trkpt>
      <trkpt lat="49.13254" lon="6.14991">
        <ele>166</ele>
        <time>2019-07-20T08:01:53Z</time>
      </trkpt>
      <trkpt lat="49.13243" lon="6.14987">
        <ele>166</ele>
        <time>2019-07-20T08:01:58Z</time>
      </trkpt>
      <trkpt lat="49.13257" lon="6.14999">
        <ele>166</ele>
        <time>2019-07-20T08:02:06Z</time>
      </trkpt>
      <trkpt lat="49.13263" lon="6.14997">
        <ele>166</ele>
        <time>2019-07-20T08:02:18Z</time>
      </trkpt>
      <trkpt lat="49.13275" lon="6.14994">
        <ele>166</ele>
        <time>2019-07-20T08:02:37Z</time>
      </trkpt>
      <trkpt lat="49.13321" lon="6.1499">
        <ele>166</ele>
        <time>2019-07-20T08:02:51Z</time>
      </trkpt>
      <trkpt lat="49.13336" lon="6.14989">
        <ele>166</ele>
        <time>2019-07-20T08:02:56Z</time>
      </trkpt>
      <trkpt lat="49.1334" lon="6.14982">
        <ele>166</ele>
        <time>2019-07-20T08:03:00Z</time>
      </trkpt>
      <trkpt lat="49.13337" lon="6.14982">
        <ele>166</ele>
        <time>2019-07-20T08:03:03Z</time>
      </trkpt>
      <trkpt lat="49.13339" lon="6.14952">
        <ele>166</ele>
        <time>2019-07-20T08:03:12Z</time>
      </trkpt>
      <trkpt lat="49.13349" lon="6.14899">
        <ele>166</ele>
        <time>2019-07-20T08:03:26Z</time>
      </trkpt>
      <trkpt lat="49.13351" lon="6.14887">
        <ele>166</ele>
        <time>2019-07-20T08:03:30Z</time>
      </trkpt>
      <trkpt lat="49.13358" lon="6.14871">
        <ele>166</ele>
        <time>2019-07-20T08:03:38Z</time>
      </trkpt>
      <trkpt lat="49.13352" lon="6.14889">
        <ele>166</ele>
        <time>2019-07-20T08:03:42Z</time>
      </trkpt>
      <trkpt lat="49.13344" lon="6.14922">
        <ele>167</ele>
        <time>2019-07-20T08:03:48Z</time>
      </trkpt>
      <trkpt lat="49.13348" lon="6.14911">
        <ele>167</ele>
        <time>2019-07-20T08:03:54Z</time>
      </trkpt>
      <trkpt lat="49.13355" lon="6.14877">
        <ele>166</ele>
        <time>2019-07-20T08:04:02Z</time>
      </trkpt>
      <trkpt lat="49.13356" lon="6.1487">
        <ele>166</ele>
        <time>2019-07-20T08:04:11Z</time>
      </trkpt>
      <trkpt lat="49.13352" lon="6.14885">
        <ele>166</ele>
        <time>2019-07-20T08:04:18Z</time>
      </trkpt>
      <trkpt lat="49.13336" lon="6.14956">
        <ele>166</ele>
        <time>2019-07-20T08:04:35Z</time>
      </trkpt>
      <trkpt lat="49.13333" lon="6.14983">
        <ele>166</ele>
        <time>2019-07-20T08:04:47Z</time>
      </trkpt>
      <trkpt lat="49.13333" lon="6.14983">
        <ele>166</ele>
        <time>2019-07-20T08:04:51Z</time>
      </trkpt>
      <trkpt lat="49.13332" lon="6.14987">
        <ele>166</ele>
        <time>2019-07-20T08:04:54Z</time>
      </trkpt>
      <trkpt lat="49.13297" lon="6.1499">
        <ele>166</ele>
        <time>2019-07-20T08:05:06Z</time>
      </trkpt>
      <trkpt lat="49.13257" lon="6.14994">
        <ele>166</ele>
        <time>2019-07-20T08:05:18Z</time>
      </trkpt>
      <trkpt lat="49.13249" lon="6.14994">
        <ele>166</ele>
        <time>2019-07-20T08:05:20Z</time>
      </trkpt>
      <trkpt lat="49.13232" lon="6.1502">
        <ele>167</ele>
        <time>2019-07-20T08:05:26Z</time>
      </trkpt>
      <trkpt lat="49.13219" lon="6.1504">
        <ele>167</ele>
        <time>2019-07-20T08:05:30Z</time>
      </trkpt>
      <trkpt lat="49.13198" lon="6.15083">
        <ele>167</ele>
        <time>2019-07-20T08:05:38Z</time>
      </trkpt>
      <trkpt lat="49.13171" lon="6.15135">
        <ele>168</ele>
        <time>2019-07-20T08:05:48Z</time>
      </trkpt>
      <trkpt lat="49.13163" lon="6.15149">
        <ele>168</ele>
        <time>2019-07-20T08:05:51Z</time>
      </trkpt>
      <trkpt lat="49.13129" lon="6.15189">
        <ele>167</ele>
        <time>2019-07-20T08:06:01Z</time>
      </trkpt>
      <trkpt lat="49.13067" lon="6.15238">
        <ele>165</ele>
        <time>2019-07-20T08:06:17Z</time>
      </trkpt>
      <trkpt lat="49.13058" lon="6.15251">
        <ele>165</ele>
        <time>2019-07-20T08:06:20Z</time>
      </trkpt>
      <trkpt lat="49.13024" lon="6.1532">
        <ele>165</ele>
        <time>2019-07-20T08:06:35Z</time>
      </trkpt>
      <trkpt lat="49.12993" lon="6.15385">
        <ele>165</ele>
        <time>2019-07-20T08:06:49Z</time>
      </trkpt>
      <trkpt lat="49.12991" lon="6.1539">
        <ele>165</ele>
        <time>2019-07-20T08:06:50Z</time>
      </trkpt>
      <trkpt lat="49.12983" lon="6.1542">
        <ele>166</ele>
        <time>2019-07-20T08:06:55Z</time>
      </trkpt>
      <trkpt lat="49.12981" lon="6.15433">
        <ele>165</ele>
        <time>2019-07-20T08:06:57Z</time>
      </trkpt>
      <trkpt lat="49.12978" lon="6.15479">
        <ele>165</ele>
        <time>2019-07-20T08:07:04Z</time>
      </trkpt>
      <trkpt lat="49.12962" lon="6.15534">
        <ele>165</ele>
        <time>2019-07-20T08:07:14Z</time>
      </trkpt>
      <trkpt lat="49.12957" lon="6.15552">
        <ele>165</ele>
        <time>2019-07-20T08:07:17Z</time>
      </trkpt>
      <trkpt lat="49.12908" lon="6.15607">
        <ele>165</ele>
        <time>2019-07-20T08:07:32Z</time>
      </trkpt>
      <trkpt lat="49.12899" lon="6.15618">
        <ele>165</ele>
        <time>2019-07-20T08:07:35Z</time>
      </trkpt>
      <trkpt lat="49.12871" lon="6.15645">
        <ele>165</ele>
        <time>2019-07-20T08:07:43Z</time>
      </trkpt>
      <trkpt lat="49.12855" lon="6.15667">
        <ele>164</ele>
        <time>2019-07-20T08:07:48Z</time>
      </trkpt>
      <trkpt lat="49.12808" lon="6.15731">
        <ele>166</ele>
        <time>2019-07-20T08:08:03Z</time>
      </trkpt>
      <trkpt lat="49.12753" lon="6.15807">
        <ele>167</ele>
        <time>2019-07-20T08:08:20Z</time>
      </trkpt>
      <trkpt lat="49.12731" lon="6.15834">
        <ele>168</ele>
        <time>2019-07-20T08:08:26Z</time>
      </trkpt>
      <trkpt lat="49.12679" lon="6.15899">
        <ele>169</ele>
        <time>2019-07-20T08:08:41Z</time>
      </trkpt>
      <trkpt lat="49.12663" lon="6.15906">
        <ele>169</ele>
        <time>2019-07-20T08:08:45Z</time>
      </trkpt>
      <trkpt lat="49.12601" lon="6.15908">
        <ele>168</ele>
        <time>2019-07-20T08:09:00Z</time>
      </trkpt>
      <trkpt lat="49.12562" lon="6.15911">
        <ele>168</ele>
        <time>2019-07-20T08:09:11Z</time>
      </trkpt>
      <trkpt lat="49.12553" lon="6.15918">
        <ele>167</ele>
        <time>2019-07-20T08:09:15Z</time>
      </trkpt>
      <trkpt lat="49.12552" lon="6.15925">
        <ele>167</ele>
        <time>2019-07-20T08:09:19Z</time>
      </trkpt>
      <trkpt lat="49.12548" lon="6.15947">
        <ele>166</ele>
        <time>2019-07-20T08:09:26Z</time>
      </trkpt>
      <trkpt lat="49.12556" lon="6.15952">
        <ele>166</ele>
        <time>2019-07-20T08:09:30Z</time>
      </trkpt>
      <trkpt lat="49.12604" lon="6.15953">
        <ele>166</ele>
        <time>2019-07-20T08:09:45Z</time>
      </trkpt>
      <trkpt lat="49.12648" lon="6.15952">
        <ele>167</ele>
        <time>2019-07-20T08:09:59Z</time>
      </trkpt>
      <trkpt lat="49.1267" lon="6.15967">
        <ele>168</ele>
        <time>2019-07-20T08:10:08Z</time>
      </trkpt>
      <trkpt lat="49.12675" lon="6.15984">
        <ele>167</ele>
        <time>2019-07-20T08:10:13Z</time>
      </trkpt>
      <trkpt lat="49.12663" lon="6.16074">
        <ele>166</ele>
        <time>2019-07-20T08:10:31Z</time>
      </trkpt>
      <trkpt lat="49.12656" lon="6.16145">
        <ele>166</ele>
        <time>2019-07-20T08:10:44Z</time>
      </trkpt>
      <trkpt lat="49.12648" lon="6.16198">
        <ele>166</ele>
        <time>2019-07-20T08:10:52Z</time>
      </trkpt>
      <trkpt lat="49.1264" lon="6.16222">
        <ele>167</ele>
        <time>2019-07-20T08:10:56Z</time>
      </trkpt>
      <trkpt lat="49.12636" lon="6.16243">
        <ele>167</ele>
        <time>2019-07-20T08:10:59Z</time>
      </trkpt>
      <trkpt lat="49.12633" lon="6.16267">
        <ele>167</ele>
        <time>2019-07-20T08:11:02Z</time>
      </trkpt>
      <trkpt lat="49.12627" lon="6.16287">
        <ele>167</ele>
        <time>2019-07-20T08:11:05Z</time>
      </trkpt>
      <trkpt lat="49.12589" lon="6.1635">
        <ele>165</ele>
        <time>2019-07-20T08:11:18Z</time>
      </trkpt>
      <trkpt lat="49.12569" lon="6.16379">
        <ele>165</ele>
        <time>2019-07-20T08:11:27Z</time>
      </trkpt>
      <trkpt lat="49.12558" lon="6.1636">
        <ele>165</ele>
        <time>2019-07-20T08:11:34Z</time>
      </trkpt>
      <trkpt lat="49.12541" lon="6.16341">
        <ele>165</ele>
        <time>2019-07-20T08:11:39Z</time>
      </trkpt>
      <trkpt lat="49.12494" lon="6.16277">
        <ele>164</ele>
        <time>2019-07-20T08:11:54Z</time>
      </trkpt>
      <trkpt lat="49.12452" lon="6.16216">
        <ele>164</ele>
        <time>2019-07-20T08:12:11Z</time>
      </trkpt>
      <trkpt lat="49.12422" lon="6.1617">
        <ele>164</ele>
        <time>2019-07-20T08:12:24Z</time>
      </trkpt>
      <trkpt lat="49.12415" lon="6.16158">
        <ele>164</ele>
        <time>2019-07-20T08:12:28Z</time>
      </trkpt>
      <trkpt lat="49.12423" lon="6.1616">
        <ele>164</ele>
        <time>2019-07-20T08:12:34Z</time>
      </trkpt>
      <trkpt lat="49.12481" lon="6.16243">
        <ele>163</ele>
        <time>2019-07-20T08:12:52Z</time>
      </trkpt>
      <trkpt lat="49.12553" lon="6.16337">
        <ele>165</ele>
        <time>2019-07-20T08:13:10Z</time>
      </trkpt>
      <trkpt lat="49.12578" lon="6.16361">
        <ele>165</ele>
        <time>2019-07-20T08:13:16Z</time>
      </trkpt>
      <trkpt lat="49.12589" lon="6.16375">
        <ele>165</ele>
        <time>2019-07-20T08:13:19Z</time>
      </trkpt>
      <trkpt lat="49.12599" lon="6.16391">
        <ele>165</ele>
        <time>2019-07-20T08:13:22Z</time>
      </trkpt>
      <trkpt lat="49.12646" lon="6.16469">
        <ele>165</ele>
        <time>2019-07-20T08:13:36Z</time>
      </trkpt>
      <trkpt lat="49.12713" lon="6.16564">
        <ele>164</ele>
        <time>2019-07-20T08:13:54Z</time>
      </trkpt>
      <trkpt lat="49.1277" lon="6.16644">
        <ele>164</ele>
        <time>2019-07-20T08:14:09Z</time>
      </trkpt>
      <trkpt lat="49.12777" lon="6.16653">
        <ele>164</ele>
        <time>2019-07-20T08:14:11Z</time>
      </trkpt>
      <trkpt lat="49.12783" lon="6.16665">
        <ele>164</ele>
        <time>2019-07-20T08:14:13Z</time>
      </trkpt>
      <trkpt lat="49.12794" lon="6.16683">
        <ele>165</ele>
        <time>2019-07-20T08:14:16Z</time>
      </trkpt>
      <trkpt lat="49.12837" lon="6.16737">
        <ele>165</ele>
        <time>2019-07-20T08:14:27Z</time>
      </trkpt>
      <trkpt lat="49.12844" lon="6.16754">
        <ele>165</ele>
        <time>2019-07-20T08:14:30Z</time>
      </trkpt>
      <trkpt lat="49.12862" lon="6.1678">
        <ele>165</ele>
        <time>2019-07-20T08:14:35Z</time>
      </trkpt>
      <trkpt lat="49.12915" lon="6.1685">
        <ele>166</ele>
        <time>2019-07-20T08:14:49Z</time>
      </trkpt>
      <trkpt lat="49.12967" lon="6.16909">
        <ele>165</ele>
        <time>2019-07-20T08:15:01Z</time>
      </trkpt>
      <trkpt lat="49.13013" lon="6.16969">
        <ele>163</ele>
        <time>2019-07-20T08:15:11Z</time>
      </trkpt>
      <trkpt lat="49.1302" lon="6.16982">
        <ele>163</ele>
        <time>2019-07-20T08:15:13Z</time>
      </trkpt>
      <trkpt lat="49.13029" lon="6.17014">
        <ele>164</ele>
        <time>2019-07-20T08:15:18Z</time>
      </trkpt>
      <trkpt lat="49.13038" lon="6.17036">
        <ele>164</ele>
        <time>2019-07-20T08:15:22Z</time>
      </trkpt>
      <trkpt lat="49.13032" lon="6.17044">
        <ele>165</ele>
        <time>2019-07-20T08:15:26Z</time>
      </trkpt>
      <trkpt lat="49.13017" lon="6.17026">
        <ele>164</ele>
        <time>2019-07-20T08:15:32Z</time>
      </trkpt>
      <trkpt lat="49.12999" lon="6.17007">
        <ele>165</ele>
        <time>2019-07-20T08:15:40Z</time>
      </trkpt>
      <trkpt lat="49.13012" lon="6.16969">
        <ele>163</ele>
        <time>2019-07-20T08:15:51Z</time>
      </trkpt>
      <trkpt lat="49.13039" lon="6.16925">
        <ele>163</ele>
        <time>2019-07-20T08:16:01Z</time>
      </trkpt>
      <trkpt lat="49.13063" lon="6.16888">
        <ele>163</ele>
        <time>2019-07-20T08:16:09Z</time>
      </trkpt>
      <trkpt lat="49.13079" lon="6.16904">
        <ele>162</ele>
        <time>2019-07-20T08:16:13Z</time>
      </trkpt>
      <trkpt lat="49.13101" lon="6.16958">
        <ele>162</ele>
        <time>2019-07-20T08:16:18Z</time>
      </trkpt>
      <trkpt lat="49.13107" lon="6.16981">
        <ele>162</ele>
        <time>2019-07-20T08:16:20Z</time>
      </trkpt>
      <trkpt lat="49.13157" lon="6.17108">
        <ele>162</ele>
        <time>2019-07-20T08:16:33Z</time>
      </trkpt>
      <trkpt lat="49.13197" lon="6.17208">
        <ele>160</ele>
        <time>2019-07-20T08:16:46Z</time>
      </trkpt>
      <trkpt lat="49.13251" lon="6.17353">
        <ele>160</ele>
        <time>2019-07-20T08:17:05Z</time>
      </trkpt>
      <trkpt lat="49.13314" lon="6.17514">
        <ele>164</ele>
        <time>2019-07-20T08:17:27Z</time>
      </trkpt>
      <trkpt lat="49.1336" lon="6.17621">
        <ele>162</ele>
        <time>2019-07-20T08:17:41Z</time>
      </trkpt>
      <trkpt lat="49.13363" lon="6.1763">
        <ele>161</ele>
        <time>2019-07-20T08:17:42Z</time>
      </trkpt>
      <trkpt lat="49.13381" lon="6.17658">
        <ele>161</ele>
        <time>2019-07-20T08:17:46Z</time>
      </trkpt>
      <trkpt lat="49.13435" lon="6.17708">
        <ele>163</ele>
        <time>2019-07-20T08:18:00Z</time>
      </trkpt>
      <trkpt lat="49.13451" lon="6.17726">
        <ele>163</ele>
        <time>2019-07-20T08:18:05Z</time>
      </trkpt>
      <trkpt lat="49.13453" lon="6.17745">
        <ele>163</ele>
        <time>2019-07-20T08:18:08Z</time>
      </trkpt>
      <trkpt lat="49.13477" lon="6.17834">
        <ele>162</ele>
        <time>2019-07-20T08:18:21Z</time>
      </trkpt>
      <trkpt lat="49.1351" lon="6.17961">
        <ele>163</ele>
        <time>2019-07-20T08:18:37Z</time>
      </trkpt>
      <trkpt lat="49.13527" lon="6.18091">
        <ele>161</ele>
        <time>2019-07-20T08:18:52Z</time>
      </trkpt>
      <trkpt lat="49.13544" lon="6.18241">
        <ele>163</ele>
        <time>2019-07-20T08:19:09Z</time>
      </trkpt>
      <trkpt lat="49.13567" lon="6.18417">
        <ele>162</ele>
        <time>2019-07-20T08:19:29Z</time>
      </trkpt>
      <trkpt lat="49.1359" lon="6.18586">
        <ele>161</ele>
        <time>2019-07-20T08:19:48Z</time>
      </trkpt>
      <trkpt lat="49.13621" lon="6.1876">
        <ele>163</ele>
        <time>2019-07-20T08:20:08Z</time>
      </trkpt>
      <trkpt lat="49.1366" lon="6.18902">
        <ele>165</ele>
        <time>2019-07-20T08:20:25Z</time>
      </trkpt>
      <trkpt lat="49.13715" lon="6.1905">
        <ele>165</ele>
        <time>2019-07-20T08:20:44Z</time>
      </trkpt>
      <trkpt lat="49.13786" lon="6.19196">
        <ele>161</ele>
        <time>2019-07-20T08:21:05Z</time>
      </trkpt>
      <trkpt lat="49.13861" lon="6.19288">
        <ele>162</ele>
        <time>2019-07-20T08:21:22Z</time>
      </trkpt>
      <trkpt lat="49.13981" lon="6.19409">
        <ele>162</ele>
        <time>2019-07-20T08:21:47Z</time>
      </trkpt>
      <trkpt lat="49.14064" lon="6.19513">
        <ele>163</ele>
        <time>2019-07-20T08:22:06Z</time>
      </trkpt>
      <trkpt lat="49.14091" lon="6.19543">
        <ele>163</ele>
        <time>2019-07-20T08:22:12Z</time>
      </trkpt>
      <trkpt lat="49.14156" lon="6.19581">
        <ele>163</ele>
        <time>2019-07-20T08:22:25Z</time>
      </trkpt>
      <trkpt lat="49.14172" lon="6.19573">
        <ele>163</ele>
        <time>2019-07-20T08:22:29Z</time>
      </trkpt>
      <trkpt lat="49.14203" lon="6.19526">
        <ele>163</ele>
        <time>2019-07-20T08:22:41Z</time>
      </trkpt>
      <trkpt lat="49.14226" lon="6.19504">
        <ele>162</ele>
        <time>2019-07-20T08:22:49Z</time>
      </trkpt>
      <trkpt lat="49.14256" lon="6.19506">
        <ele>163</ele>
        <time>2019-07-20T08:22:57Z</time>
      </trkpt>
      <trkpt lat="49.14305" lon="6.19538">
        <ele>164</ele>
        <time>2019-07-20T08:23:05Z</time>
      </trkpt>
      <trkpt lat="49.14343" lon="6.19551">
        <ele>167</ele>
        <time>2019-07-20T08:23:10Z</time>
      </trkpt>
      <trkpt lat="49.14369" lon="6.19549">
        <ele>167</ele>
        <time>2019-07-20T08:23:14Z</time>
      </trkpt>
      <trkpt lat="49.14387" lon="6.19542">
        <ele>168</ele>
        <time>2019-07-20T08:23:18Z</time>
      </trkpt>
      <trkpt lat="49.14406" lon="6.19597">
        <ele>167</ele>
        <time>2019-07-20T08:23:26Z</time>
      </trkpt>
      <trkpt lat="49.14385" lon="6.19695">
        <ele>167</ele>
        <time>2019-07-20T08:23:37Z</time>
      </trkpt>
      <trkpt lat="49.14382" lon="6.19763">
        <ele>167</ele>
        <time>2019-07-20T08:23:46Z</time>
      </trkpt>
      <trkpt lat="49.14408" lon="6.19793">
        <ele>166</ele>
        <time>2019-07-20T08:23:53Z</time>
      </trkpt>
      <trkpt lat="49.14414" lon="6.19792">
        <ele>166</ele>
        <time>2019-07-20T08:23:54Z</time>
      </trkpt>
      <trkpt lat="49.14451" lon="6.19794">
        <ele>166</ele>
        <time>2019-07-20T08:24:00Z</time>
      </trkpt>
      <trkpt lat="49.14483" lon="6.19819">
        <ele>166</ele>
        <time>2019-07-20T08:24:06Z</time>
      </trkpt>
      <trkpt lat="49.1452" lon="6.19833">
        <ele>165</ele>
        <time>2019-07-20T08:24:13Z</time>
      </trkpt>
      <trkpt lat="49.1453" lon="6.19838">
        <ele>165</ele>
        <time>2019-07-20T08:24:15Z</time>
      </trkpt>
      <trkpt lat="49.14595" lon="6.19889">
        <ele>163</ele>
        <time>2019-07-20T08:24:28Z</time>
      </trkpt>
      <trkpt lat="49.14671" lon="6.19932">
        <ele>161</ele>
        <time>2019-07-20T08:24:42Z</time>
      </trkpt>
      <trkpt lat="49.1475" lon="6.1997">
        <ele>162</ele>
        <time>2019-07-20T08:24:57Z</time>
      </trkpt>
      <trkpt lat="49.14795" lon="6.19987">
        <ele>162</ele>
        <time>2019-07-20T08:25:06Z</time>
      </trkpt>
      <trkpt lat="49.14873" lon="6.20018">
        <ele>162</ele>
        <time>2019-07-20T08:25:21Z</time>
      </trkpt>
      <trkpt lat="49.14882" lon="6.20024">
        <ele>162</ele>
        <time>2019-07-20T08:25:23Z</time>
      </trkpt>
      <trkpt lat="49.1495" lon="6.20055">
        <ele>163</ele>
        <time>2019-07-20T08:25:37Z</time>
      </trkpt>
      <trkpt lat="49.15031" lon="6.20089">
        <ele>167</ele>
        <time>2019-07-20T08:25:54Z</time>
      </trkpt>
      <trkpt lat="49.15085" lon="6.20108">
        <ele>165</ele>
        <time>2019-07-20T08:26:05Z</time>
      </trkpt>
      <trkpt lat="49.15134" lon="6.20102">
        <ele>165</ele>
        <time>2019-07-20T08:26:16Z</time>
      </trkpt>
      <trkpt lat="49.15143" lon="6.20099">
        <ele>165</ele>
        <time>2019-07-20T08:26:18Z</time>
      </trkpt>
      <trkpt lat="49.15169" lon="6.20099">
        <ele>164</ele>
        <time>2019-07-20T08:26:23Z</time>
      </trkpt>
      <trkpt lat="49.15179" lon="6.20103">
        <ele>164</ele>
        <time>2019-07-20T08:26:25Z</time>
      </trkpt>
      <trkpt lat="49.15245" lon="6.20142">
        <ele>163</ele>
        <time>2019-07-20T08:26:39Z</time>
      </trkpt>
      <trkpt lat="49.15271" lon="6.20117">
        <ele>162</ele>
        <time>2019-07-20T08:26:46Z</time>
      </trkpt>
      <trkpt lat="49.15315" lon="6.20028">
        <ele>163</ele>
        <time>2019-07-20T08:27:00Z</time>
      </trkpt>
      <trkpt lat="49.15331" lon="6.19995">
        <ele>165</ele>
        <time>2019-07-20T08:27:05Z</time>
      </trkpt>
      <trkpt lat="49.15363" lon="6.19904">
        <ele>163</ele>
        <time>2019-07-20T08:27:18Z</time>
      </trkpt>
      <trkpt lat="49.15385" lon="6.19782">
        <ele>162</ele>
        <time>2019-07-20T08:27:33Z</time>
      </trkpt>
      <trkpt lat="49.15391" lon="6.1975">
        <ele>162</ele>
        <time>2019-07-20T08:27:37Z</time>
      </trkpt>
      <trkpt lat="49.15402" lon="6.19684">
        <ele>161</ele>
        <time>2019-07-20T08:27:49Z</time>
      </trkpt>
      <trkpt lat="49.1541" lon="6.19644">
        <ele>162</ele>
        <time>2019-07-20T08:27:56Z</time>
      </trkpt>
      <trkpt lat="49.15417" lon="6.19608">
        <ele>163</ele>
        <time>2019-07-20T08:28:01Z</time>
      </trkpt>
      <trkpt lat="49.15421" lon="6.19452">
        <ele>166</ele>
        <time>2019-07-20T08:28:21Z</time>
      </trkpt>
      <trkpt lat="49.15425" lon="6.19301">
        <ele>163</ele>
        <time>2019-07-20T08:28:41Z</time>
      </trkpt>
      <trkpt lat="49.15426" lon="6.19287">
        <ele>163</ele>
        <time>2019-07-20T08:28:43Z</time>
      </trkpt>
      <trkpt lat="49.15428" lon="6.19275">
        <ele>163</ele>
        <time>2019-07-20T08:28:45Z</time>
      </trkpt>
      <trkpt lat="49.15447" lon="6.19254">
        <ele>162</ele>
        <time>2019-07-20T08:28:51Z</time>
      </trkpt>
      <trkpt lat="49.15505" lon="6.19254">
        <ele>160</ele>
        <time>2019-07-20T08:29:03Z</time>
      </trkpt>
      <trkpt lat="49.15516" lon="6.19267">
        <ele>161</ele>
        <time>2019-07-20T08:29:07Z</time>
      </trkpt>
      <trkpt lat="49.15517" lon="6.19382">
        <ele>162</ele>
        <time>2019-07-20T08:29:22Z</time>
      </trkpt>
      <trkpt lat="49.15518" lon="6.1953">
        <ele>165</ele>
        <time>2019-07-20T08:29:40Z</time>
      </trkpt>
      <trkpt lat="49.15518" lon="6.19674">
        <ele>163</ele>
        <time>2019-07-20T08:29:57Z</time>
      </trkpt>
      <trkpt lat="49.15518" lon="6.19735">
        <ele>163</ele>
        <time>2019-07-20T08:30:04Z</time>
      </trkpt>
      <trkpt lat="49.1552" lon="6.19776">
        <ele>163</ele>
        <time>2019-07-20T08:30:09Z</time>
      </trkpt>
      <trkpt lat="49.15541" lon="6.19805">
        <ele>162</ele>
        <time>2019-07-20T08:30:14Z</time>
      </trkpt>
      <trkpt lat="49.15629" lon="6.19789">
        <ele>162</ele>
        <time>2019-07-20T08:30:29Z</time>
      </trkpt>
      <trkpt lat="49.15699" lon="6.19781">
        <ele>162</ele>
        <time>2019-07-20T08:30:41Z</time>
      </trkpt>
      <trkpt lat="49.15722" lon="6.19789">
        <ele>162</ele>
        <time>2019-07-20T08:30:45Z</time>
      </trkpt>
      <trkpt lat="49.15804" lon="6.19794">
        <ele>162</ele>
        <time>2019-07-20T08:30:59Z</time>
      </trkpt>
      <trkpt lat="49.15833" lon="6.19789">
        <ele>162</ele>
        <time>2019-07-20T08:31:04Z</time>
      </trkpt>
      <trkpt lat="49.1585" lon="6.1977">
        <ele>162</ele>
        <time>2019-07-20T08:31:08Z</time>
      </trkpt>
      <trkpt lat="49.15871" lon="6.19702">
        <ele>164</ele>
        <time>2019-07-20T08:31:17Z</time>
      </trkpt>
      <trkpt lat="49.15901" lon="6.19693">
        <ele>164</ele>
        <time>2019-07-20T08:31:24Z</time>
      </trkpt>
      <trkpt lat="49.15906" lon="6.19693">
        <ele>164</ele>
        <time>2019-07-20T08:31:25Z</time>
      </trkpt>
      <trkpt lat="49.15996" lon="6.19699">
        <ele>165</ele>
        <time>2019-07-20T08:31:42Z</time>
      </trkpt>
      <trkpt lat="49.1607" lon="6.19702">
        <ele>163</ele>
        <time>2019-07-20T08:31:56Z</time>
      </trkpt>
      <trkpt lat="49.16119" lon="6.197">
        <ele>162</ele>
        <time>2019-07-20T08:32:06Z</time>
      </trkpt>
      <trkpt lat="49.16135" lon="6.1973">
        <ele>162</ele>
        <time>2019-07-20T08:32:13Z</time>
      </trkpt>
      <trkpt lat="49.1614" lon="6.19737">
        <ele>162</ele>
        <time>2019-07-20T08:32:15Z</time>
      </trkpt>
      <trkpt lat="49.16166" lon="6.1977">
        <ele>162</ele>
        <time>2019-07-20T08:32:22Z</time>
      </trkpt>
      <trkpt lat="49.16192" lon="6.19795">
        <ele>162</ele>
        <time>2019-07-20T08:32:28Z</time>
      </trkpt>
      <trkpt lat="49.16278" lon="6.19848">
        <ele>162</ele>
        <time>2019-07-20T08:32:45Z</time>
      </trkpt>
      <trkpt lat="49.16348" lon="6.19923">
        <ele>161</ele>
        <time>2019-07-20T08:33:00Z</time>
      </trkpt>
      <trkpt lat="49.16407" lon="6.20003">
        <ele>160</ele>
        <time>2019-07-20T08:33:14Z</time>
      </trkpt>
      <trkpt lat="49.16479" lon="6.20094">
        <ele>159</ele>
        <time>2019-07-20T08:33:30Z</time>
      </trkpt>
      <trkpt lat="49.16561" lon="6.20192">
        <ele>159</ele>
        <time>2019-07-20T08:33:49Z</time>
      </trkpt>
      <trkpt lat="49.16607" lon="6.20237">
        <ele>160</ele>
        <time>2019-07-20T08:33:59Z</time>
      </trkpt>
      <trkpt lat="49.16689" lon="6.20298">
        <ele>160</ele>
        <time>2019-07-20T08:34:16Z</time>
      </trkpt>
      <trkpt lat="49.16758" lon="6.20335">
        <ele>157</ele>
        <time>2019-07-20T08:34:30Z</time>
      </trkpt>
      <trkpt lat="49.16769" lon="6.20337">
        <ele>158</ele>
        <time>2019-07-20T08:34:32Z</time>
      </trkpt>
      <trkpt lat="49.16785" lon="6.20343">
        <ele>158</ele>
        <time>2019-07-20T08:34:35Z</time>
      </trkpt>
      <trkpt lat="49.16883" lon="6.20361">
        <ele>161</ele>
        <time>2019-07-20T08:34:53Z</time>
      </trkpt>
      <trkpt lat="49.1699" lon="6.20368">
        <ele>160</ele>
        <time>2019-07-20T08:35:12Z</time>
      </trkpt>
      <trkpt lat="49.17107" lon="6.20372">
        <ele>161</ele>
        <time>2019-07-20T08:35:32Z</time>
      </trkpt>
      <trkpt lat="49.17235" lon="6.20379">
        <ele>162</ele>
        <time>2019-07-20T08:35:54Z</time>
      </trkpt>
      <trkpt lat="49.17252" lon="6.20382">
        <ele>162</ele>
        <time>2019-07-20T08:35:57Z</time>
      </trkpt>
      <trkpt lat="49.1735" lon="6.20409">
        <ele>163</ele>
        <time>2019-07-20T08:36:15Z</time>
      </trkpt>
      <trkpt lat="49.17456" lon="6.20412">
        <ele>162</ele>
        <time>2019-07-20T08:36:34Z</time>
      </trkpt>
      <trkpt lat="49.1755" lon="6.20399">
        <ele>161</ele>
        <time>2019-07-20T08:36:50Z</time>
      </trkpt>
      <trkpt lat="49.17637" lon="6.20382">
        <ele>159</ele>
        <time>2019-07-20T08:37:06Z</time>
      </trkpt>
      <trkpt lat="49.17659" lon="6.20376">
        <ele>158</ele>
        <time>2019-07-20T08:37:10Z</time>
      </trkpt>
      <trkpt lat="49.1775" lon="6.20357">
        <ele>157</ele>
        <time>2019-07-20T08:37:27Z</time>
      </trkpt>
      <trkpt lat="49.17805" lon="6.20331">
        <ele>156</ele>
        <time>2019-07-20T08:37:38Z</time>
      </trkpt>
      <trkpt lat="49.17828" lon="6.20309">
        <ele>157</ele>
        <time>2019-07-20T08:37:43Z</time>
      </trkpt>
      <trkpt lat="49.17851" lon="6.20298">
        <ele>160</ele>
        <time>2019-07-20T08:37:48Z</time>
      </trkpt>
      <trkpt lat="49.17872" lon="6.20254">
        <ele>161</ele>
        <time>2019-07-20T08:37:55Z</time>
      </trkpt>
      <trkpt lat="49.17882" lon="6.20209">
        <ele>162</ele>
        <time>2019-07-20T08:38:00Z</time>
      </trkpt>
      <trkpt lat="49.17885" lon="6.2019">
        <ele>162</ele>
        <time>2019-07-20T08:38:02Z</time>
      </trkpt>
      <trkpt lat="49.17923" lon="6.20043">
        <ele>160</ele>
        <time>2019-07-20T08:38:20Z</time>
      </trkpt>
      <trkpt lat="49.17932" lon="6.19983">
        <ele>159</ele>
        <time>2019-07-20T08:38:27Z</time>
      </trkpt>
      <trkpt lat="49.17938" lon="6.1995">
        <ele>159</ele>
        <time>2019-07-20T08:38:31Z</time>
      </trkpt>
      <trkpt lat="49.17978" lon="6.19806">
        <ele>158</ele>
        <time>2019-07-20T08:38:49Z</time>
      </trkpt>
      <trkpt lat="49.18016" lon="6.1966">
        <ele>156</ele>
        <time>2019-07-20T08:39:08Z</time>
      </trkpt>
      <trkpt lat="49.18059" lon="6.19519">
        <ele>157</ele>
        <time>2019-07-20T08:39:27Z</time>
      </trkpt>
      <trkpt lat="49.18097" lon="6.19392">
        <ele>156</ele>
        <time>2019-07-20T08:39:45Z</time>
      </trkpt>
      <trkpt lat="49.18134" lon="6.19262">
        <ele>156</ele>
        <time>2019-07-20T08:40:03Z</time>
      </trkpt>
      <trkpt lat="49.18164" lon="6.19161">
        <ele>158</ele>
        <time>2019-07-20T08:40:17Z</time>
      </trkpt>
      <trkpt lat="49.18201" lon="6.19042">
        <ele>158</ele>
        <time>2019-07-20T08:40:33Z</time>
      </trkpt>
      <trkpt lat="49.18255" lon="6.18929">
        <ele>160</ele>
        <time>2019-07-20T08:40:50Z</time>
      </trkpt>
      <trkpt lat="49.1833" lon="6.18807">
        <ele>158</ele>
        <time>2019-07-20T08:41:11Z</time>
      </trkpt>
      <trkpt lat="49.18392" lon="6.1873">
        <ele>158</ele>
        <time>2019-07-20T08:41:26Z</time>
      </trkpt>
      <trkpt lat="49.18475" lon="6.1865">
        <ele>158</ele>
        <time>2019-07-20T08:41:44Z</time>
      </trkpt>
      <trkpt lat="49.18534" lon="6.18606">
        <ele>160</ele>
        <time>2019-07-20T08:41:56Z</time>
      </trkpt>
      <trkpt lat="49.18551" lon="6.18582">
        <ele>162</ele>
        <time>2019-07-20T08:42:00Z</time>
      </trkpt>
      <trkpt lat="49.18557" lon="6.18567">
        <ele>162</ele>
        <time>2019-07-20T08:42:02Z</time>
      </trkpt>
      <trkpt lat="49.18601" lon="6.18485">
        <ele>162</ele>
        <time>2019-07-20T08:42:17Z</time>
      </trkpt>
      <trkpt lat="49.18603" lon="6.18475">
        <ele>161</ele>
        <time>2019-07-20T08:42:20Z</time>
      </trkpt>
      <trkpt lat="49.186" lon="6.18467">
        <ele>161</ele>
        <time>2019-07-20T08:42:24Z</time>
      </trkpt>
      <trkpt lat="49.18599" lon="6.18442">
        <ele>161</ele>
        <time>2019-07-20T08:42:29Z</time>
      </trkpt>
      <trkpt lat="49.18614" lon="6.18441">
        <ele>161</ele>
        <time>2019-07-20T08:42:36Z</time>
      </trkpt>
      <trkpt lat="49.18622" lon="6.18446">
        <ele>161</ele>
        <time>2019-07-20T08:42:38Z</time>
      </trkpt>
      <trkpt lat="49.18647" lon="6.18446">
        <ele>161</ele>
        <time>2019-07-20T08:42:44Z</time>
      </trkpt>
      <trkpt lat="49.18656" lon="6.18445">
        <ele>161</ele>
        <time>2019-07-20T08:42:46Z</time>
      </trkpt>
      <trkpt lat="49.1873" lon="6.18432">
        <ele>161</ele>
        <time>2019-07-20T08:43:02Z</time>
      </trkpt>
      <trkpt lat="49.18763" lon="6.18427">
        <ele>161</ele>
        <time>2019-07-20T08:43:09Z</time>
      </trkpt>
      <trkpt lat="49.188" lon="6.18463">
        <ele>160</ele>
        <time>2019-07-20T08:43:19Z</time>
      </trkpt>
      <trkpt lat="49.18814" lon="6.18516">
        <ele>159</ele>
        <time>2019-07-20T08:43:29Z</time>
      </trkpt>
      <trkpt lat="49.18816" lon="6.18529">
        <ele>159</ele>
        <time>2019-07-20T08:43:31Z</time>
      </trkpt>
      <trkpt lat="49.18808" lon="6.18576">
        <ele>159</ele>
        <time>2019-07-20T08:43:37Z</time>
      </trkpt>
      <trkpt lat="49.188" lon="6.18593">
        <ele>160</ele>
        <time>2019-07-20T08:43:39Z</time>
      </trkpt>
      <trkpt lat="49.1881" lon="6.18665">
        <ele>159</ele>
        <time>2019-07-20T08:43:46Z</time>
      </trkpt>
      <trkpt lat="49.18817" lon="6.1867">
        <ele>159</ele>
        <time>2019-07-20T08:43:47Z</time>
      </trkpt>
      <trkpt lat="49.18893" lon="6.18713">
        <ele>159</ele>
        <time>2019-07-20T08:43:59Z</time>
      </trkpt>
      <trkpt lat="49.18918" lon="6.18728">
        <ele>158</ele>
        <time>2019-07-20T08:44:04Z</time>
      </trkpt>
      <trkpt lat="49.18999" lon="6.18812">
        <ele>161</ele>
        <time>2019-07-20T08:44:21Z</time>
      </trkpt>
      <trkpt lat="49.19039" lon="6.18888">
        <ele>163</ele>
        <time>2019-07-20T08:44:33Z</time>
      </trkpt>
      <trkpt lat="49.19064" lon="6.18883">
        <ele>163</ele>
        <time>2019-07-20T08:44:40Z</time>
      </trkpt>
      <trkpt lat="49.19067" lon="6.18877">
        <ele>163</ele>
        <time>2019-07-20T08:44:41Z</time>
      </trkpt>
      <trkpt lat="49.19073" lon="6.18865">
        <ele>163</ele>
        <time>2019-07-20T08:44:43Z</time>
      </trkpt>
      <trkpt lat="49.19093" lon="6.18873">
        <ele>161</ele>
        <time>2019-07-20T08:44:48Z</time>
      </trkpt>
      <trkpt lat="49.19159" lon="6.18964">
        <ele>160</ele>
        <time>2019-07-20T08:45:05Z</time>
      </trkpt>
      <trkpt lat="49.19174" lon="6.18986">
        <ele>160</ele>
        <time>2019-07-20T08:45:09Z</time>
      </trkpt>
      <trkpt lat="49.19223" lon="6.19">
        <ele>160</ele>
        <time>2019-07-20T08:45:19Z</time>
      </trkpt>
      <trkpt lat="49.19244" lon="6.19004">
        <ele>160</ele>
        <time>2019-07-20T08:45:23Z</time>
      </trkpt>
      <trkpt lat="49.19323" lon="6.19046">
        <ele>159</ele>
        <time>2019-07-20T08:45:38Z</time>
      </trkpt>
      <trkpt lat="49.19393" lon="6.19113">
        <ele>160</ele>
        <time>2019-07-20T08:45:53Z</time>
      </trkpt>
      <trkpt lat="49.19398" lon="6.19117">
        <ele>160</ele>
        <time>2019-07-20T08:45:54Z</time>
      </trkpt>
      <trkpt lat="49.19431" lon="6.19101">
        <ele>160</ele>
        <time>2019-07-20T08:46:02Z</time>
      </trkpt>
      <trkpt lat="49.19468" lon="6.18973">
        <ele>157</ele>
        <time>2019-07-20T08:46:18Z</time>
      </trkpt>
      <trkpt lat="49.19505" lon="6.18825">
        <ele>159</ele>
        <time>2019-07-20T08:46:36Z</time>
      </trkpt>
      <trkpt lat="49.19506" lon="6.18792">
        <ele>159</ele>
        <time>2019-07-20T08:46:40Z</time>
      </trkpt>
      <trkpt lat="49.19502" lon="6.18721">
        <ele>161</ele>
        <time>2019-07-20T08:46:49Z</time>
      </trkpt>
      <trkpt lat="49.19519" lon="6.18669">
        <ele>162</ele>
        <time>2019-07-20T08:46:57Z</time>
      </trkpt>
      <trkpt lat="49.19528" lon="6.1866">
        <ele>162</ele>
        <time>2019-07-20T08:46:59Z</time>
      </trkpt>
      <trkpt lat="49.19593" lon="6.18597">
        <ele>161</ele>
        <time>2019-07-20T08:47:14Z</time>
      </trkpt>
      <trkpt lat="49.19666" lon="6.18557">
        <ele>161</ele>
        <time>2019-07-20T08:47:29Z</time>
      </trkpt>
      <trkpt lat="49.19755" lon="6.18538">
        <ele>162</ele>
        <time>2019-07-20T08:47:45Z</time>
      </trkpt>
      <trkpt lat="49.19858" lon="6.1851">
        <ele>163</ele>
        <time>2019-07-20T08:48:04Z</time>
      </trkpt>
      <trkpt lat="49.19953" lon="6.18486">
        <ele>160</ele>
        <time>2019-07-20T08:48:22Z</time>
      </trkpt>
      <trkpt lat="49.19994" lon="6.18475">
        <ele>160</ele>
        <time>2019-07-20T08:48:30Z</time>
      </trkpt>
      <trkpt lat="49.20008" lon="6.1847">
        <ele>161</ele>
        <time>2019-07-20T08:48:33Z</time>
      </trkpt>
      <trkpt lat="49.20026" lon="6.18428">
        <ele>161</ele>
        <time>2019-07-20T08:48:40Z</time>
      </trkpt>
      <trkpt lat="49.20023" lon="6.18395">
        <ele>162</ele>
        <time>2019-07-20T08:48:44Z</time>
      </trkpt>
      <trkpt lat="49.20019" lon="6.18336">
        <ele>162</ele>
        <time>2019-07-20T08:48:51Z</time>
      </trkpt>
      <trkpt lat="49.20019" lon="6.1832">
        <ele>163</ele>
        <time>2019-07-20T08:48:53Z</time>
      </trkpt>
      <trkpt lat="49.20021" lon="6.1829">
        <ele>163</ele>
        <time>2019-07-20T08:48:57Z</time>
      </trkpt>
      <trkpt lat="49.20037" lon="6.18186">
        <ele>161</ele>
        <time>2019-07-20T08:49:11Z</time>
      </trkpt>
      <trkpt lat="49.20045" lon="6.18167">
        <ele>161</ele>
        <time>2019-07-20T08:49:14Z</time>
      </trkpt>
      <trkpt lat="49.20058" lon="6.18106">
        <ele>160</ele>
        <time>2019-07-20T08:49:23Z</time>
      </trkpt>
      <trkpt lat="49.2008" lon="6.18077">
        <ele>160</ele>
        <time>2019-07-20T08:49:29Z</time>
      </trkpt>
      <trkpt lat="49.20103" lon="6.18067">
        <ele>161</ele>
        <time>2019-07-20T08:49:34Z</time>
      </trkpt>
      <trkpt lat="49.20137" lon="6.18072">
        <ele>162</ele>
        <time>2019-07-20T08:49:41Z</time>
      </trkpt>
      <trkpt lat="49.20148" lon="6.18072">
        <ele>162</ele>
        <time>2019-07-20T08:49:43Z</time>
      </trkpt>
      <trkpt lat="49.20159" lon="6.1807">
        <ele>162</ele>
        <time>2019-07-20T08:49:45Z</time>
      </trkpt>
      <trkpt lat="49.20181" lon="6.18069">
        <ele>161</ele>
        <time>2019-07-20T08:49:50Z</time>
      </trkpt>
      <trkpt lat="49.20279" lon="6.18081">
        <ele>159</ele>
        <time>2019-07-20T08:50:09Z</time>
      </trkpt>
      <trkpt lat="49.20294" lon="6.18085">
        <ele>158</ele>
        <time>2019-07-20T08:50:12Z</time>
      </trkpt>
      <trkpt lat="49.20314" lon="6.18092">
        <ele>158</ele>
        <time>2019-07-20T08:50:16Z</time>
      </trkpt>
      <trkpt lat="49.20407" lon="6.18119">
        <ele>158</ele>
        <time>2019-07-20T08:50:33Z</time>
      </trkpt>
      <trkpt lat="49.20504" lon="6.18131">
        <ele>160</ele>
        <time>2019-07-20T08:50:51Z</time>
      </trkpt>
      <trkpt lat="49.20582" lon="6.18138">
        <ele>160</ele>
        <time>2019-07-20T08:51:06Z</time>
      </trkpt>
      <trkpt lat="49.20592" lon="6.18138">
        <ele>159</ele>
        <time>2019-07-20T08:51:08Z</time>
      </trkpt>
      <trkpt lat="49.20611" lon="6.18121">
        <ele>159</ele>
        <time>2019-07-20T08:51:15Z</time>
      </trkpt>
      <trkpt lat="49.2062" lon="6.18121">
        <ele>159</ele>
        <time>2019-07-20T08:51:18Z</time>
      </trkpt>
      <trkpt lat="49.20627" lon="6.1812">
        <ele>159</ele>
        <time>2019-07-20T08:51:20Z</time>
      </trkpt>
      <trkpt lat="49.20653" lon="6.18124">
        <ele>159</ele>
        <time>2019-07-20T08:51:27Z</time>
      </trkpt>
      <trkpt lat="49.20699" lon="6.1813">
        <ele>158</ele>
        <time>2019-07-20T08:51:37Z</time>
      </trkpt>
      <trkpt lat="49.20773" lon="6.18136">
        <ele>159</ele>
        <time>2019-07-20T08:51:52Z</time>
      </trkpt>
      <trkpt lat="49.20788" lon="6.18136">
        <ele>159</ele>
        <time>2019-07-20T08:51:55Z</time>
      </trkpt>
      <trkpt lat="49.20884" lon="6.18151">
        <ele>159</ele>
        <time>2019-07-20T08:52:13Z</time>
      </trkpt>
      <trkpt lat="49.20979" lon="6.18162">
        <ele>158</ele>
        <time>2019-07-20T08:52:30Z</time>
      </trkpt>
      <trkpt lat="49.21006" lon="6.18165">
        <ele>158</ele>
        <time>2019-07-20T08:52:35Z</time>
      </trkpt>
      <trkpt lat="49.21105" lon="6.18177">
        <ele>158</ele>
        <time>2019-07-20T08:52:53Z</time>
      </trkpt>
      <trkpt lat="49.21181" lon="6.18186">
        <ele>159</ele>
        <time>2019-07-20T08:53:08Z</time>
      </trkpt>
      <trkpt lat="49.21208" lon="6.18188">
        <ele>159</ele>
        <time>2019-07-20T08:53:13Z</time>
      </trkpt>
      <trkpt lat="49.21314" lon="6.18198">
        <ele>161</ele>
        <time>2019-07-20T08:53:32Z</time>
      </trkpt>
      <trkpt lat="49.21401" lon="6.18209">
        <ele>162</ele>
        <time>2019-07-20T08:53:48Z</time>
      </trkpt>
      <trkpt lat="49.21487" lon="6.18217">
        <ele>161</ele>
        <time>2019-07-20T08:54:04Z</time>
      </trkpt>
      <trkpt lat="49.21579" lon="6.18229">
        <ele>161</ele>
        <time>2019-07-20T08:54:21Z</time>
      </trkpt>
      <trkpt lat="49.2167" lon="6.18241">
        <ele>159</ele>
        <time>2019-07-20T08:54:39Z</time>
      </trkpt>
      <trkpt lat="49.21685" lon="6.18246">
        <ele>160</ele>
        <time>2019-07-20T08:54:42Z</time>
      </trkpt>
      <trkpt lat="49.21694" lon="6.1825">
        <ele>160</ele>
        <time>2019-07-20T08:54:44Z</time>
      </trkpt>
      <trkpt lat="49.21727" lon="6.1826">
        <ele>161</ele>
        <time>2019-07-20T08:54:51Z</time>
      </trkpt>
      <trkpt lat="49.21736" lon="6.18261">
        <ele>161</ele>
        <time>2019-07-20T08:54:53Z</time>
      </trkpt>
      <trkpt lat="49.21779" lon="6.18269">
        <ele>162</ele>
        <time>2019-07-20T08:55:06Z</time>
      </trkpt>
      <trkpt lat="49.218" lon="6.18271">
        <ele>161</ele>
        <time>2019-07-20T08:55:12Z</time>
      </trkpt>
      <trkpt lat="49.21874" lon="6.18269">
        <ele>161</ele>
        <time>2019-07-20T08:55:22Z</time>
      </trkpt>
      <trkpt lat="49.21913" lon="6.18269">
        <ele>161</ele>
        <time>2019-07-20T08:55:27Z</time>
      </trkpt>
      <trkpt lat="49.21927" lon="6.18272">
        <ele>161</ele>
        <time>2019-07-20T08:55:29Z</time>
      </trkpt>
      <trkpt lat="49.22007" lon="6.18282">
        <ele>161</ele>
        <time>2019-07-20T08:55:43Z</time>
      </trkpt>
      <trkpt lat="49.2208" lon="6.18291">
        <ele>161</ele>
        <time>2019-07-20T08:55:59Z</time>
      </trkpt>
      <trkpt lat="49.22152" lon="6.18301">
        <ele>160</ele>
        <time>2019-07-20T08:56:13Z</time>
      </trkpt>
      <trkpt lat="49.22221" lon="6.18308">
        <ele>160</ele>
        <time>2019-07-20T08:56:26Z</time>
      </trkpt>
      <trkpt lat="49.22305" lon="6.18317">
        <ele>159</ele>
        <time>2019-07-20T08:56:41Z</time>
      </trkpt>
      <trkpt lat="49.22411" lon="6.18328">
        <ele>159</ele>
        <time>2019-07-20T08:57:00Z</time>
      </trkpt>
      <trkpt lat="49.22486" lon="6.18336">
        <ele>159</ele>
        <time>2019-07-20T08:57:14Z</time>
      </trkpt>
      <trkpt lat="49.22547" lon="6.18343">
        <ele>159</ele>
        <time>2019-07-20T08:57:25Z</time>
      </trkpt>
      <trkpt lat="49.22645" lon="6.18355">
        <ele>159</ele>
        <time>2019-07-20T08:57:42Z</time>
      </trkpt>
      <trkpt lat="49.22749" lon="6.18365">
        <ele>159</ele>
        <time>2019-07-20T08:58:01Z</time>
      </trkpt>
      <trkpt lat="49.22773" lon="6.18367">
        <ele>159</ele>
        <time>2019-07-20T08:58:06Z</time>
      </trkpt>
      <trkpt lat="49.22782" lon="6.18369">
        <ele>159</ele>
        <time>2019-07-20T08:58:08Z</time>
      </trkpt>
      <trkpt lat="49.22801" lon="6.18371">
        <ele>158</ele>
        <time>2019-07-20T08:58:13Z</time>
      </trkpt>
      <trkpt lat="49.22824" lon="6.18376">
        <ele>158</ele>
        <time>2019-07-20T08:58:23Z</time>
      </trkpt>
      <trkpt lat="49.22859" lon="6.18382">
        <ele>158</ele>
        <time>2019-07-20T08:58:36Z</time>
      </trkpt>
      <trkpt lat="49.22915" lon="6.18393">
        <ele>159</ele>
        <time>2019-07-20T08:58:48Z</time>
      </trkpt>
      <trkpt lat="49.22956" lon="6.184">
        <ele>159</ele>
        <time>2019-07-20T08:58:56Z</time>
      </trkpt>
      <trkpt lat="49.22975" lon="6.18399">
        <ele>159</ele>
        <time>2019-07-20T08:59:00Z</time>
      </trkpt>
      <trkpt lat="49.23006" lon="6.18391">
        <ele>159</ele>
        <time>2019-07-20T08:59:06Z</time>
      </trkpt>
      <trkpt lat="49.2302" lon="6.1839">
        <ele>159</ele>
        <time>2019-07-20T08:59:09Z</time>
      </trkpt>
      <trkpt lat="49.23067" lon="6.18411">
        <ele>158</ele>
        <time>2019-07-20T08:59:20Z</time>
      </trkpt>
      <trkpt lat="49.23086" lon="6.1841">
        <ele>158</ele>
        <time>2019-07-20T08:59:24Z</time>
      </trkpt>
      <trkpt lat="49.23161" lon="6.18409">
        <ele>157</ele>
        <time>2019-07-20T08:59:35Z</time>
      </trkpt>
      <trkpt lat="49.23263" lon="6.18394">
        <ele>155</ele>
        <time>2019-07-20T08:59:53Z</time>
      </trkpt>
      <trkpt lat="49.23358" lon="6.18379">
        <ele>153</ele>
        <time>2019-07-20T09:00:10Z</time>
      </trkpt>
      <trkpt lat="49.2346" lon="6.1836">
        <ele>155</ele>
        <time>2019-07-20T09:00:28Z</time>
      </trkpt>
      <trkpt lat="49.23581" lon="6.18342">
        <ele>158</ele>
        <time>2019-07-20T09:00:49Z</time>
      </trkpt>
      <trkpt lat="49.23673" lon="6.18324">
        <ele>158</ele>
        <time>2019-07-20T09:01:05Z</time>
      </trkpt>
      <trkpt lat="49.23755" lon="6.18319">
        <ele>159</ele>
        <time>2019-07-20T09:01:20Z</time>
      </trkpt>
      <trkpt lat="49.23829" lon="6.18307">
        <ele>159</ele>
        <time>2019-07-20T09:01:34Z</time>
      </trkpt>
      <trkpt lat="49.23843" lon="6.18307">
        <ele>159</ele>
        <time>2019-07-20T09:01:37Z</time>
      </trkpt>
      <trkpt lat="49.23855" lon="6.18311">
        <ele>158</ele>
        <time>2019-07-20T09:01:40Z</time>
      </trkpt>
      <trkpt lat="49.23872" lon="6.18307">
        <ele>158</ele>
        <time>2019-07-20T09:01:44Z</time>
      </trkpt>
      <trkpt lat="49.23955" lon="6.18272">
        <ele>158</ele>
        <time>2019-07-20T09:01:57Z</time>
      </trkpt>
      <trkpt lat="49.2403" lon="6.18261">
        <ele>157</ele>
        <time>2019-07-20T09:02:10Z</time>
      </trkpt>
      <trkpt lat="49.24105" lon="6.18248">
        <ele>156</ele>
        <time>2019-07-20T09:02:24Z</time>
      </trkpt>
      <trkpt lat="49.2417" lon="6.18236">
        <ele>158</ele>
        <time>2019-07-20T09:02:37Z</time>
      </trkpt>
      <trkpt lat="49.24194" lon="6.18222">
        <ele>158</ele>
        <time>2019-07-20T09:02:42Z</time>
      </trkpt>
      <trkpt lat="49.24204" lon="6.18219">
        <ele>158</ele>
        <time>2019-07-20T09:02:44Z</time>
      </trkpt>
      <trkpt lat="49.24228" lon="6.18224">
        <ele>158</ele>
        <time>2019-07-20T09:02:49Z</time>
      </trkpt>
      <trkpt lat="49.24304" lon="6.18213">
        <ele>156</ele>
        <time>2019-07-20T09:03:04Z</time>
      </trkpt>
      <trkpt lat="49.24393" lon="6.18199">
        <ele>157</ele>
        <time>2019-07-20T09:03:21Z</time>
      </trkpt>
      <trkpt lat="49.2448" lon="6.18183">
        <ele>157</ele>
        <time>2019-07-20T09:03:38Z</time>
      </trkpt>
      <trkpt lat="49.24504" lon="6.1818">
        <ele>156</ele>
        <time>2019-07-20T09:03:43Z</time>
      </trkpt>
      <trkpt lat="49.24522" lon="6.18177">
        <ele>156</ele>
        <time>2019-07-20T09:03:47Z</time>
      </trkpt>
      <trkpt lat="49.24617" lon="6.18159">
        <ele>158</ele>
        <time>2019-07-20T09:04:05Z</time>
      </trkpt>
      <trkpt lat="49.24685" lon="6.18148">
        <ele>159</ele>
        <time>2019-07-20T09:04:17Z</time>
      </trkpt>
      <trkpt lat="49.24775" lon="6.18133">
        <ele>159</ele>
        <time>2019-07-20T09:04:33Z</time>
      </trkpt>
      <trkpt lat="49.24831" lon="6.18126">
        <ele>159</ele>
        <time>2019-07-20T09:04:47Z</time>
      </trkpt>
      <trkpt lat="49.24831" lon="6.18125">
        <ele>159</ele>
        <time>2019-07-20T09:04:52Z</time>
      </trkpt>
      <trkpt lat="49.24814" lon="6.18126">
        <ele>159</ele>
        <time>2019-07-20T09:05:02Z</time>
      </trkpt>
      <trkpt lat="49.24789" lon="6.18129">
        <ele>159</ele>
        <time>2019-07-20T09:05:09Z</time>
      </trkpt>
      <trkpt lat="49.24706" lon="6.18143">
        <ele>158</ele>
        <time>2019-07-20T09:05:27Z</time>
      </trkpt>
      <trkpt lat="49.24616" lon="6.1816">
        <ele>158</ele>
        <time>2019-07-20T09:05:45Z</time>
      </trkpt>
      <trkpt lat="49.24524" lon="6.18175">
        <ele>156</ele>
        <time>2019-07-20T09:06:03Z</time>
      </trkpt>
      <trkpt lat="49.24404" lon="6.18195">
        <ele>158</ele>
        <time>2019-07-20T09:06:26Z</time>
      </trkpt>
      <trkpt lat="49.24312" lon="6.18212">
        <ele>156</ele>
        <time>2019-07-20T09:06:44Z</time>
      </trkpt>
      <trkpt lat="49.24237" lon="6.18224">
        <ele>157</ele>
        <time>2019-07-20T09:06:59Z</time>
      </trkpt>
      <trkpt lat="49.2421" lon="6.18219">
        <ele>158</ele>
        <time>2019-07-20T09:07:04Z</time>
      </trkpt>
      <trkpt lat="49.24189" lon="6.18224">
        <ele>158</ele>
        <time>2019-07-20T09:07:08Z</time>
      </trkpt>
      <trkpt lat="49.24174" lon="6.18234">
        <ele>158</ele>
        <time>2019-07-20T09:07:11Z</time>
      </trkpt>
      <trkpt lat="49.24085" lon="6.1825">
        <ele>155</ele>
        <time>2019-07-20T09:07:29Z</time>
      </trkpt>
      <trkpt lat="49.24009" lon="6.18262">
        <ele>157</ele>
        <time>2019-07-20T09:07:44Z</time>
      </trkpt>
      <trkpt lat="49.23914" lon="6.18282">
        <ele>158</ele>
        <time>2019-07-20T09:08:03Z</time>
      </trkpt>
      <trkpt lat="49.2385" lon="6.18309">
        <ele>159</ele>
        <time>2019-07-20T09:08:19Z</time>
      </trkpt>
      <trkpt lat="49.23786" lon="6.18314">
        <ele>159</ele>
        <time>2019-07-20T09:08:31Z</time>
      </trkpt>
      <trkpt lat="49.23703" lon="6.18317">
        <ele>159</ele>
        <time>2019-07-20T09:08:46Z</time>
      </trkpt>
      <trkpt lat="49.23611" lon="6.18334">
        <ele>157</ele>
        <time>2019-07-20T09:09:03Z</time>
      </trkpt>
      <trkpt lat="49.23518" lon="6.18349">
        <ele>158</ele>
        <time>2019-07-20T09:09:21Z</time>
      </trkpt>
      <trkpt lat="49.23413" lon="6.18367">
        <ele>153</ele>
        <time>2019-07-20T09:09:42Z</time>
      </trkpt>
      <trkpt lat="49.23316" lon="6.18384">
        <ele>154</ele>
        <time>2019-07-20T09:10:01Z</time>
      </trkpt>
      <trkpt lat="49.23228" lon="6.184">
        <ele>156</ele>
        <time>2019-07-20T09:10:18Z</time>
      </trkpt>
      <trkpt lat="49.23138" lon="6.18409">
        <ele>157</ele>
        <time>2019-07-20T09:10:35Z</time>
      </trkpt>
      <trkpt lat="49.23056" lon="6.1841">
        <ele>158</ele>
        <time>2019-07-20T09:10:52Z</time>
      </trkpt>
      <trkpt lat="49.23053" lon="6.1841">
        <ele>159</ele>
        <time>2019-07-20T09:10:53Z</time>
      </trkpt>
      <trkpt lat="49.23013" lon="6.18387">
        <ele>159</ele>
        <time>2019-07-20T09:11:01Z</time>
      </trkpt>
      <trkpt lat="49.22988" lon="6.18394">
        <ele>159</ele>
        <time>2019-07-20T09:11:06Z</time>
      </trkpt>
      <trkpt lat="49.22974" lon="6.18398">
        <ele>159</ele>
        <time>2019-07-20T09:11:09Z</time>
      </trkpt>
      <trkpt lat="49.22927" lon="6.18392">
        <ele>159</ele>
        <time>2019-07-20T09:11:20Z</time>
      </trkpt>
      <trkpt lat="49.22873" lon="6.18384">
        <ele>158</ele>
        <time>2019-07-20T09:11:32Z</time>
      </trkpt>
      <trkpt lat="49.22826" lon="6.18374">
        <ele>158</ele>
        <time>2019-07-20T09:11:46Z</time>
      </trkpt>
      <trkpt lat="49.22809" lon="6.18375">
        <ele>158</ele>
        <time>2019-07-20T09:11:57Z</time>
      </trkpt>
      <trkpt lat="49.22807" lon="6.18376">
        <ele>158</ele>
        <time>2019-07-20T09:11:59Z</time>
      </trkpt>
      <trkpt lat="49.22798" lon="6.18374">
        <ele>158</ele>
        <time>2019-07-20T09:12:05Z</time>
      </trkpt>
      <trkpt lat="49.22793" lon="6.18375">
        <ele>158</ele>
        <time>2019-07-20T09:12:07Z</time>
      </trkpt>
      <trkpt lat="49.22776" lon="6.18372">
        <ele>159</ele>
        <time>2019-07-20T09:12:13Z</time>
      </trkpt>
      <trkpt lat="49.22704" lon="6.18364">
        <ele>159</ele>
        <time>2019-07-20T09:12:31Z</time>
      </trkpt>
      <trkpt lat="49.22696" lon="6.18363">
        <ele>159</ele>
        <time>2019-07-20T09:12:33Z</time>
      </trkpt>
      <trkpt lat="49.22639" lon="6.18356">
        <ele>159</ele>
        <time>2019-07-20T09:12:46Z</time>
      </trkpt>
      <trkpt lat="49.2263" lon="6.18355">
        <ele>159</ele>
        <time>2019-07-20T09:12:48Z</time>
      </trkpt>
      <trkpt lat="49.22553" lon="6.18345">
        <ele>160</ele>
        <time>2019-07-20T09:13:05Z</time>
      </trkpt>
      <trkpt lat="49.22519" lon="6.1834">
        <ele>159</ele>
        <time>2019-07-20T09:13:12Z</time>
      </trkpt>
      <trkpt lat="49.22435" lon="6.18331">
        <ele>159</ele>
        <time>2019-07-20T09:13:29Z</time>
      </trkpt>
      <trkpt lat="49.22344" lon="6.1832">
        <ele>159</ele>
        <time>2019-07-20T09:13:47Z</time>
      </trkpt>
      <trkpt lat="49.22242" lon="6.1831">
        <ele>160</ele>
        <time>2019-07-20T09:14:07Z</time>
      </trkpt>
      <trkpt lat="49.22144" lon="6.183">
        <ele>160</ele>
        <time>2019-07-20T09:14:26Z</time>
      </trkpt>
      <trkpt lat="49.2206" lon="6.1829">
        <ele>161</ele>
        <time>2019-07-20T09:14:42Z</time>
      </trkpt>
      <trkpt lat="49.22044" lon="6.18287">
        <ele>161</ele>
        <time>2019-07-20T09:14:45Z</time>
      </trkpt>
      <trkpt lat="49.21941" lon="6.18273">
        <ele>161</ele>
        <time>2019-07-20T09:15:05Z</time>
      </trkpt>
      <trkpt lat="49.21855" lon="6.18271">
        <ele>161</ele>
        <time>2019-07-20T09:15:22Z</time>
      </trkpt>
      <trkpt lat="49.21796" lon="6.18271">
        <ele>162</ele>
        <time>2019-07-20T09:15:37Z</time>
      </trkpt>
      <trkpt lat="49.21759" lon="6.18265">
        <ele>162</ele>
        <time>2019-07-20T09:15:49Z</time>
      </trkpt>
      <trkpt lat="49.21682" lon="6.18246">
        <ele>160</ele>
        <time>2019-07-20T09:16:01Z</time>
      </trkpt>
      <trkpt lat="49.21587" lon="6.18231">
        <ele>161</ele>
        <time>2019-07-20T09:16:16Z</time>
      </trkpt>
      <trkpt lat="49.21519" lon="6.18224">
        <ele>161</ele>
        <time>2019-07-20T09:16:29Z</time>
      </trkpt>
      <trkpt lat="49.21436" lon="6.18215">
        <ele>162</ele>
        <time>2019-07-20T09:16:45Z</time>
      </trkpt>
      <trkpt lat="49.21353" lon="6.18202">
        <ele>162</ele>
        <time>2019-07-20T09:17:01Z</time>
      </trkpt>
      <trkpt lat="49.21272" lon="6.18193">
        <ele>160</ele>
        <time>2019-07-20T09:17:17Z</time>
      </trkpt>
      <trkpt lat="49.21262" lon="6.18192">
        <ele>160</ele>
        <time>2019-07-20T09:17:19Z</time>
      </trkpt>
      <trkpt lat="49.21165" lon="6.18185">
        <ele>159</ele>
        <time>2019-07-20T09:17:38Z</time>
      </trkpt>
      <trkpt lat="49.21073" lon="6.18175">
        <ele>157</ele>
        <time>2019-07-20T09:17:56Z</time>
      </trkpt>
      <trkpt lat="49.20965" lon="6.18162">
        <ele>159</ele>
        <time>2019-07-20T09:18:17Z</time>
      </trkpt>
      <trkpt lat="49.20903" lon="6.18155">
        <ele>159</ele>
        <time>2019-07-20T09:18:29Z</time>
      </trkpt>
      <trkpt lat="49.20867" lon="6.1815">
        <ele>159</ele>
        <time>2019-07-20T09:18:36Z</time>
      </trkpt>
      <trkpt lat="49.20792" lon="6.18137">
        <ele>159</ele>
        <time>2019-07-20T09:18:51Z</time>
      </trkpt>
      <trkpt lat="49.20706" lon="6.18132">
        <ele>158</ele>
        <time>2019-07-20T09:19:08Z</time>
      </trkpt>
      <trkpt lat="49.20639" lon="6.18125">
        <ele>159</ele>
        <time>2019-07-20T09:19:23Z</time>
      </trkpt>
      <trkpt lat="49.20611" lon="6.18124">
        <ele>159</ele>
        <time>2019-07-20T09:19:31Z</time>
      </trkpt>
      <trkpt lat="49.20608" lon="6.18126">
        <ele>159</ele>
        <time>2019-07-20T09:19:32Z</time>
      </trkpt>
      <trkpt lat="49.20603" lon="6.18134">
        <ele>159</ele>
        <time>2019-07-20T09:19:34Z</time>
      </trkpt>
      <trkpt lat="49.20588" lon="6.18141">
        <ele>159</ele>
        <time>2019-07-20T09:19:38Z</time>
      </trkpt>
      <trkpt lat="49.20495" lon="6.18132">
        <ele>159</ele>
        <time>2019-07-20T09:19:57Z</time>
      </trkpt>
      <trkpt lat="49.20413" lon="6.18121">
        <ele>158</ele>
        <time>2019-07-20T09:20:14Z</time>
      </trkpt>
      <trkpt lat="49.20329" lon="6.18099">
        <ele>158</ele>
        <time>2019-07-20T09:20:31Z</time>
      </trkpt>
      <trkpt lat="49.2029" lon="6.18085">
        <ele>158</ele>
        <time>2019-07-20T09:20:40Z</time>
      </trkpt>
      <trkpt lat="49.20197" lon="6.18072">
        <ele>161</ele>
        <time>2019-07-20T09:21:00Z</time>
      </trkpt>
      <trkpt lat="49.20171" lon="6.18069">
        <ele>161</ele>
        <time>2019-07-20T09:21:06Z</time>
      </trkpt>
      <trkpt lat="49.20114" lon="6.1806">
        <ele>161</ele>
        <time>2019-07-20T09:21:18Z</time>
      </trkpt>
      <trkpt lat="49.20102" lon="6.18059">
        <ele>161</ele>
        <time>2019-07-20T09:21:21Z</time>
      </trkpt>
      <trkpt lat="49.2007" lon="6.18068">
        <ele>160</ele>
        <time>2019-07-20T09:21:28Z</time>
      </trkpt>
      <trkpt lat="49.20042" lon="6.18116">
        <ele>160</ele>
        <time>2019-07-20T09:21:36Z</time>
      </trkpt>
      <trkpt lat="49.20023" lon="6.1825">
        <ele>162</ele>
        <time>2019-07-20T09:21:52Z</time>
      </trkpt>
      <trkpt lat="49.2002" lon="6.18385">
        <ele>162</ele>
        <time>2019-07-20T09:22:08Z</time>
      </trkpt>
      <trkpt lat="49.20025" lon="6.18431">
        <ele>161</ele>
        <time>2019-07-20T09:22:14Z</time>
      </trkpt>
      <trkpt lat="49.20011" lon="6.18464">
        <ele>161</ele>
        <time>2019-07-20T09:22:20Z</time>
      </trkpt>
      <trkpt lat="49.19918" lon="6.18491">
        <ele>160</ele>
        <time>2019-07-20T09:22:38Z</time>
      </trkpt>
      <trkpt lat="49.1982" lon="6.18515">
        <ele>163</ele>
        <time>2019-07-20T09:22:57Z</time>
      </trkpt>
      <trkpt lat="49.19724" lon="6.18542">
        <ele>161</ele>
        <time>2019-07-20T09:23:16Z</time>
      </trkpt>
      <trkpt lat="49.19618" lon="6.18575">
        <ele>161</ele>
        <time>2019-07-20T09:23:37Z</time>
      </trkpt>
      <trkpt lat="49.19538" lon="6.18649">
        <ele>162</ele>
        <time>2019-07-20T09:23:55Z</time>
      </trkpt>
      <trkpt lat="49.19533" lon="6.18653">
        <ele>162</ele>
        <time>2019-07-20T09:23:56Z</time>
      </trkpt>
      <trkpt lat="49.195" lon="6.1871">
        <ele>162</ele>
        <time>2019-07-20T09:24:06Z</time>
      </trkpt>
      <trkpt lat="49.19499" lon="6.18727">
        <ele>161</ele>
        <time>2019-07-20T09:24:08Z</time>
      </trkpt>
      <trkpt lat="49.19503" lon="6.18796">
        <ele>159</ele>
        <time>2019-07-20T09:24:16Z</time>
      </trkpt>
      <trkpt lat="49.19483" lon="6.18912">
        <ele>156</ele>
        <time>2019-07-20T09:24:30Z</time>
      </trkpt>
      <trkpt lat="49.19451" lon="6.19032">
        <ele>159</ele>
        <time>2019-07-20T09:24:46Z</time>
      </trkpt>
      <trkpt lat="49.19429" lon="6.19104">
        <ele>160</ele>
        <time>2019-07-20T09:24:56Z</time>
      </trkpt>
      <trkpt lat="49.19394" lon="6.19113">
        <ele>160</ele>
        <time>2019-07-20T09:25:04Z</time>
      </trkpt>
      <trkpt lat="49.1939" lon="6.19108">
        <ele>160</ele>
        <time>2019-07-20T09:25:05Z</time>
      </trkpt>
      <trkpt lat="49.19302" lon="6.19031">
        <ele>159</ele>
        <time>2019-07-20T09:25:24Z</time>
      </trkpt>
      <trkpt lat="49.19268" lon="6.19012">
        <ele>160</ele>
        <time>2019-07-20T09:25:31Z</time>
      </trkpt>
      <trkpt lat="49.1924" lon="6.19001">
        <ele>160</ele>
        <time>2019-07-20T09:25:40Z</time>
      </trkpt>
      <trkpt lat="49.19239" lon="6.18984">
        <ele>160</ele>
        <time>2019-07-20T09:25:47Z</time>
      </trkpt>
      <trkpt lat="49.19244" lon="6.18969">
        <ele>160</ele>
        <time>2019-07-20T09:26:01Z</time>
      </trkpt>
      <trkpt lat="49.19244" lon="6.18973">
        <ele>160</ele>
        <time>2019-07-20T09:26:19Z</time>
      </trkpt>
      <trkpt lat="49.19244" lon="6.18972">
        <ele>160</ele>
        <time>2019-07-20T09:26:50Z</time>
      </trkpt>
      <trkpt lat="49.19245" lon="6.1897">
        <ele>160</ele>
        <time>2019-07-20T09:27:25Z</time>
      </trkpt>
      <trkpt lat="49.19245" lon="6.1897">
        <ele>160</ele>
        <time>2019-07-20T09:27:53Z</time>
      </trkpt>
      <trkpt lat="49.19244" lon="6.18969">
        <ele>160</ele>
        <time>2019-07-20T09:28:35Z</time>
      </trkpt>
      <trkpt lat="49.19244" lon="6.1897">
        <ele>160</ele>
        <time>2019-07-20T09:29:10Z</time>
      </trkpt>
      <trkpt lat="49.19244" lon="6.18971">
        <ele>160</ele>
        <time>2019-07-20T09:29:43Z</time>
      </trkpt>
      <trkpt lat="49.19245" lon="6.1897">
        <ele>160</ele>
        <time>2019-07-20T09:30:20Z</time>
      </trkpt>
      <trkpt lat="49.19244" lon="6.18968">
        <ele>160</ele>
        <time>2019-07-20T09:31:08Z</time>
      </trkpt>
      <trkpt lat="49.19243" lon="6.18969">
        <ele>160</ele>
        <time>2019-07-20T09:31:51Z</time>
      </trkpt>
      <trkpt lat="49.19244" lon="6.18969">
        <ele>160</ele>
        <time>2019-07-20T09:32:26Z</time>
      </trkpt>
      <trkpt lat="49.19243" lon="6.18968">
        <ele>160</ele>
        <time>2019-07-20T09:33:06Z</time>
      </trkpt>
      <trkpt lat="49.19243" lon="6.18971">
        <ele>160</ele>
        <time>2019-07-20T09:33:40Z</time>
      </trkpt>
      <trkpt lat="49.19242" lon="6.18969">
        <ele>160</ele>
        <time>2019-07-20T09:34:10Z</time>
      </trkpt>
      <trkpt lat="49.19243" lon="6.18969">
        <ele>160</ele>
        <time>2019-07-20T09:34:41Z</time>
      </trkpt>
      <trkpt lat="49.19241" lon="6.18969">
        <ele>160</ele>
        <time>2019-07-20T09:35:20Z</time>
      </trkpt>
      <trkpt lat="49.19242" lon="6.18972">
        <ele>160</ele>
        <time>2019-07-20T09:36:02Z</time>
      </trkpt>
      <trkpt lat="49.19242" lon="6.18971">
        <ele>160</ele>
        <time>2019-07-20T09:36:44Z</time>
      </trkpt>
      <trkpt lat="49.19243" lon="6.18972">
        <ele>160</ele>
        <time>2019-07-20T09:37:22Z</time>
      </trkpt>
      <trkpt lat="49.19244" lon="6.18973">
        <ele>160</ele>
        <time>2019-07-20T09:38:06Z</time>
      </trkpt>
      <trkpt lat="49.19244" lon="6.18972">
        <ele>160</ele>
        <time>2019-07-20T09:38:40Z</time>
      </trkpt>
      <trkpt lat="49.19245" lon="6.1897">
        <ele>160</ele>
        <time>2019-07-20T09:39:09Z</time>
      </trkpt>
      <trkpt lat="49.19244" lon="6.18971">
        <ele>160</ele>
        <time>2019-07-20T09:39:49Z</time>
      </trkpt>
      <trkpt lat="49.19244" lon="6.18969">
        <ele>160</ele>
        <time>2019-07-20T09:40:37Z</time>
      </trkpt>
      <trkpt lat="49.19244" lon="6.18968">
        <ele>160</ele>
        <time>2019-07-20T09:41:06Z</time>
      </trkpt>
      <trkpt lat="49.19244" lon="6.1897">
        <ele>160</ele>
        <time>2019-07-20T09:41:51Z</time>
      </trkpt>
      <trkpt lat="49.19243" lon="6.18969">
        <ele>160</ele>
        <time>2019-07-20T09:42:24Z</time>
      </trkpt>
      <trkpt lat="49.19244" lon="6.18969">
        <ele>160</ele>
        <time>2019-07-20T09:42:57Z</time>
      </trkpt>
      <trkpt lat="49.19244" lon="6.18969">
        <ele>160</ele>
        <time>2019-07-20T09:43:30Z</time>
      </trkpt>
      <trkpt lat="49.19243" lon="6.18968">
        <ele>160</ele>
        <time>2019-07-20T09:44:15Z</time>
      </trkpt>
      <trkpt lat="49.19243" lon="6.1897">
        <ele>160</ele>
        <time>2019-07-20T09:44:42Z</time>
      </trkpt>
      <trkpt lat="49.19243" lon="6.18972">
        <ele>160</ele>
        <time>2019-07-20T09:45:16Z</time>
      </trkpt>
      <trkpt lat="49.19242" lon="6.18971">
        <ele>160</ele>
        <time>2019-07-20T09:45:52Z</time>
      </trkpt>
      <trkpt lat="49.19243" lon="6.1897">
        <ele>160</ele>
        <time>2019-07-20T09:46:21Z</time>
      </trkpt>
      <trkpt lat="49.19244" lon="6.18969">
        <ele>160</ele>
        <time>2019-07-20T09:46:53Z</time>
      </trkpt>
      <trkpt lat="49.19243" lon="6.18969">
        <ele>160</ele>
        <time>2019-07-20T09:47:31Z</time>
      </trkpt>
      <trkpt lat="49.19243" lon="6.18968">
        <ele>160</ele>
        <time>2019-07-20T09:48:08Z</time>
      </trkpt>
      <trkpt lat="49.19243" lon="6.18971">
        <ele>160</ele>
        <time>2019-07-20T09:48:17Z</time>
      </trkpt>
      <trkpt lat="49.1924" lon="6.18979">
        <ele>160</ele>
        <time>2019-07-20T09:48:21Z</time>
      </trkpt>
      <trkpt lat="49.19238" lon="6.18993">
        <ele>160</ele>
        <time>2019-07-20T09:48:25Z</time>
      </trkpt>
      <trkpt lat="49.19221" lon="6.18998">
        <ele>160</ele>
        <time>2019-07-20T09:48:33Z</time>
      </trkpt>
      <trkpt lat="49.19183" lon="6.18992">
        <ele>160</ele>
        <time>2019-07-20T09:48:48Z</time>
      </trkpt>
      <trkpt lat="49.19154" lon="6.18957">
        <ele>160</ele>
        <time>2019-07-20T09:48:59Z</time>
      </trkpt>
      <trkpt lat="49.19121" lon="6.18911">
        <ele>161</ele>
        <time>2019-07-20T09:49:12Z</time>
      </trkpt>
      <trkpt lat="49.19096" lon="6.18877">
        <ele>161</ele>
        <time>2019-07-20T09:49:20Z</time>
      </trkpt>
      <trkpt lat="49.19072" lon="6.18866">
        <ele>163</ele>
        <time>2019-07-20T09:49:27Z</time>
      </trkpt>
      <trkpt lat="49.19039" lon="6.18886">
        <ele>163</ele>
        <time>2019-07-20T09:49:38Z</time>
      </trkpt>
      <trkpt lat="49.19011" lon="6.18833">
        <ele>163</ele>
        <time>2019-07-20T09:49:49Z</time>
      </trkpt>
      <trkpt lat="49.18999" lon="6.18813">
        <ele>162</ele>
        <time>2019-07-20T09:49:53Z</time>
      </trkpt>
      <trkpt lat="49.18933" lon="6.18739">
        <ele>158</ele>
        <time>2019-07-20T09:50:12Z</time>
      </trkpt>
      <trkpt lat="49.18863" lon="6.18695">
        <ele>159</ele>
        <time>2019-07-20T09:50:29Z</time>
      </trkpt>
      <trkpt lat="49.18809" lon="6.1866">
        <ele>159</ele>
        <time>2019-07-20T09:50:43Z</time>
      </trkpt>
      <trkpt lat="49.18799" lon="6.18639">
        <ele>160</ele>
        <time>2019-07-20T09:50:47Z</time>
      </trkpt>
      <trkpt lat="49.18799" lon="6.186">
        <ele>160</ele>
        <time>2019-07-20T09:50:53Z</time>
      </trkpt>
      <trkpt lat="49.18818" lon="6.18528">
        <ele>159</ele>
        <time>2019-07-20T09:51:08Z</time>
      </trkpt>
      <trkpt lat="49.18799" lon="6.18453">
        <ele>160</ele>
        <time>2019-07-20T09:51:23Z</time>
      </trkpt>
      <trkpt lat="49.18754" lon="6.18423">
        <ele>161</ele>
        <time>2019-07-20T09:51:33Z</time>
      </trkpt>
      <trkpt lat="49.18656" lon="6.1844">
        <ele>161</ele>
        <time>2019-07-20T09:51:49Z</time>
      </trkpt>
      <trkpt lat="49.18622" lon="6.18443">
        <ele>161</ele>
        <time>2019-07-20T09:51:56Z</time>
      </trkpt>
      <trkpt lat="49.18596" lon="6.18396">
        <ele>160</ele>
        <time>2019-07-20T09:52:05Z</time>
      </trkpt>
      <trkpt lat="49.18593" lon="6.18266">
        <ele>159</ele>
        <time>2019-07-20T09:52:22Z</time>
      </trkpt>
      <trkpt lat="49.18593" lon="6.18204">
        <ele>160</ele>
        <time>2019-07-20T09:52:30Z</time>
      </trkpt>
      <trkpt lat="49.18577" lon="6.18102">
        <ele>160</ele>
        <time>2019-07-20T09:52:43Z</time>
      </trkpt>
      <trkpt lat="49.18566" lon="6.18057">
        <ele>160</ele>
        <time>2019-07-20T09:52:49Z</time>
      </trkpt>
      <trkpt lat="49.1854" lon="6.1797">
        <ele>160</ele>
        <time>2019-07-20T09:53:01Z</time>
      </trkpt>
      <trkpt lat="49.18517" lon="6.17903">
        <ele>160</ele>
        <time>2019-07-20T09:53:12Z</time>
      </trkpt>
      <trkpt lat="49.1848" lon="6.17818">
        <ele>161</ele>
        <time>2019-07-20T09:53:28Z</time>
      </trkpt>
      <trkpt lat="49.1845" lon="6.17758">
        <ele>161</ele>
        <time>2019-07-20T09:53:41Z</time>
      </trkpt>
      <trkpt lat="49.1842" lon="6.17684">
        <ele>162</ele>
        <time>2019-07-20T09:53:58Z</time>
      </trkpt>
      <trkpt lat="49.18392" lon="6.17599">
        <ele>162</ele>
        <time>2019-07-20T09:54:14Z</time>
      </trkpt>
      <trkpt lat="49.18379" lon="6.17577">
        <ele>163</ele>
        <time>2019-07-20T09:54:18Z</time>
      </trkpt>
      <trkpt lat="49.1837" lon="6.17566">
        <ele>162</ele>
        <time>2019-07-20T09:54:20Z</time>
      </trkpt>
      <trkpt lat="49.18347" lon="6.17546">
        <ele>162</ele>
        <time>2019-07-20T09:54:24Z</time>
      </trkpt>
      <trkpt lat="49.18312" lon="6.17535">
        <ele>162</ele>
        <time>2019-07-20T09:54:29Z</time>
      </trkpt>
      <trkpt lat="49.18225" lon="6.17535">
        <ele>161</ele>
        <time>2019-07-20T09:54:43Z</time>
      </trkpt>
      <trkpt lat="49.18131" lon="6.17533">
        <ele>161</ele>
        <time>2019-07-20T09:55:01Z</time>
      </trkpt>
      <trkpt lat="49.18027" lon="6.17531">
        <ele>162</ele>
        <time>2019-07-20T09:55:21Z</time>
      </trkpt>
      <trkpt lat="49.17929" lon="6.17531">
        <ele>161</ele>
        <time>2019-07-20T09:55:39Z</time>
      </trkpt>
      <trkpt lat="49.1786" lon="6.17534">
        <ele>159</ele>
        <time>2019-07-20T09:55:52Z</time>
      </trkpt>
      <trkpt lat="49.17782" lon="6.17535">
        <ele>159</ele>
        <time>2019-07-20T09:56:07Z</time>
      </trkpt>
      <trkpt lat="49.17691" lon="6.17527">
        <ele>161</ele>
        <time>2019-07-20T09:56:25Z</time>
      </trkpt>
      <trkpt lat="49.17647" lon="6.17536">
        <ele>161</ele>
        <time>2019-07-20T09:56:34Z</time>
      </trkpt>
      <trkpt lat="49.17621" lon="6.17532">
        <ele>161</ele>
        <time>2019-07-20T09:56:40Z</time>
      </trkpt>
      <trkpt lat="49.17622" lon="6.17531">
        <ele>161</ele>
        <time>2019-07-20T09:56:47Z</time>
      </trkpt>
      <trkpt lat="49.17622" lon="6.17527">
        <ele>161</ele>
        <time>2019-07-20T09:56:48Z</time>
      </trkpt>
      <trkpt lat="49.17604" lon="6.17441">
        <ele>161</ele>
        <time>2019-07-20T09:57:02Z</time>
      </trkpt>
      <trkpt lat="49.17598" lon="6.17415">
        <ele>160</ele>
        <time>2019-07-20T09:57:06Z</time>
      </trkpt>
      <trkpt lat="49.1759" lon="6.17388">
        <ele>160</ele>
        <time>2019-07-20T09:57:10Z</time>
      </trkpt>
      <trkpt lat="49.17586" lon="6.17375">
        <ele>160</ele>
        <time>2019-07-20T09:57:12Z</time>
      </trkpt>
      <trkpt lat="49.17561" lon="6.17278">
        <ele>159</ele>
        <time>2019-07-20T09:57:26Z</time>
      </trkpt>
      <trkpt lat="49.17546" lon="6.17139">
        <ele>158</ele>
        <time>2019-07-20T09:57:44Z</time>
      </trkpt>
      <trkpt lat="49.17533" lon="6.17006">
        <ele>159</ele>
        <time>2019-07-20T09:58:01Z</time>
      </trkpt>
      <trkpt lat="49.17521" lon="6.16875">
        <ele>160</ele>
        <time>2019-07-20T09:58:18Z</time>
      </trkpt>
      <trkpt lat="49.17515" lon="6.16767">
        <ele>160</ele>
        <time>2019-07-20T09:58:32Z</time>
      </trkpt>
      <trkpt lat="49.17511" lon="6.16625">
        <ele>160</ele>
        <time>2019-07-20T09:58:51Z</time>
      </trkpt>
      <trkpt lat="49.175" lon="6.1649">
        <ele>163</ele>
        <time>2019-07-20T09:59:09Z</time>
      </trkpt>
      <trkpt lat="49.1749" lon="6.16378">
        <ele>164</ele>
        <time>2019-07-20T09:59:24Z</time>
      </trkpt>
      <trkpt lat="49.17473" lon="6.16264">
        <ele>165</ele>
        <time>2019-07-20T09:59:40Z</time>
      </trkpt>
      <trkpt lat="49.17462" lon="6.16195">
        <ele>164</ele>
        <time>2019-07-20T09:59:52Z</time>
      </trkpt>
      <trkpt lat="49.17491" lon="6.16179">
        <ele>164</ele>
        <time>2019-07-20T10:00:04Z</time>
      </trkpt>
      <trkpt lat="49.17527" lon="6.16173">
        <ele>165</ele>
        <time>2019-07-20T10:00:14Z</time>
      </trkpt>
      <trkpt lat="49.176" lon="6.16174">
        <ele>165</ele>
        <time>2019-07-20T10:00:30Z</time>
      </trkpt>
      <trkpt lat="49.17647" lon="6.16174">
        <ele>164</ele>
        <time>2019-07-20T10:00:40Z</time>
      </trkpt>
      <trkpt lat="49.17666" lon="6.16168">
        <ele>163</ele>
        <time>2019-07-20T10:00:44Z</time>
      </trkpt>
      <trkpt lat="49.1769" lon="6.16165">
        <ele>164</ele>
        <time>2019-07-20T10:00:49Z</time>
      </trkpt>
      <trkpt lat="49.17711" lon="6.16149">
        <ele>164</ele>
        <time>2019-07-20T10:00:54Z</time>
      </trkpt>
      <trkpt lat="49.17721" lon="6.16137">
        <ele>164</ele>
        <time>2019-07-20T10:00:57Z</time>
      </trkpt>
      <trkpt lat="49.17736" lon="6.16089">
        <ele>164</ele>
        <time>2019-07-20T10:01:05Z</time>
      </trkpt>
      <trkpt lat="49.17735" lon="6.15996">
        <ele>165</ele>
        <time>2019-07-20T10:01:22Z</time>
      </trkpt>
      <trkpt lat="49.17733" lon="6.15884">
        <ele>166</ele>
        <time>2019-07-20T10:01:42Z</time>
      </trkpt>
      <trkpt lat="49.17721" lon="6.15805">
        <ele>166</ele>
        <time>2019-07-20T10:01:57Z</time>
      </trkpt>
      <trkpt lat="49.17705" lon="6.15728">
        <ele>166</ele>
        <time>2019-07-20T10:02:10Z</time>
      </trkpt>
      <trkpt lat="49.17701" lon="6.15711">
        <ele>166</ele>
        <time>2019-07-20T10:02:13Z</time>
      </trkpt>
      <trkpt lat="49.17694" lon="6.15693">
        <ele>166</ele>
        <time>2019-07-20T10:02:16Z</time>
      </trkpt>
      <trkpt lat="49.17684" lon="6.15675">
        <ele>167</ele>
        <time>2019-07-20T10:02:19Z</time>
      </trkpt>
      <trkpt lat="49.17677" lon="6.15665">
        <ele>166</ele>
        <time>2019-07-20T10:02:21Z</time>
      </trkpt>
      <trkpt lat="49.17641" lon="6.15634">
        <ele>166</ele>
        <time>2019-07-20T10:02:29Z</time>
      </trkpt>
      <trkpt lat="49.17632" lon="6.15626">
        <ele>166</ele>
        <time>2019-07-20T10:02:31Z</time>
      </trkpt>
      <trkpt lat="49.17611" lon="6.15563">
        <ele>165</ele>
        <time>2019-07-20T10:02:40Z</time>
      </trkpt>
      <trkpt lat="49.17611" lon="6.15547">
        <ele>165</ele>
        <time>2019-07-20T10:02:42Z</time>
      </trkpt>
      <trkpt lat="49.17609" lon="6.15511">
        <ele>165</ele>
        <time>2019-07-20T10:02:47Z</time>
      </trkpt>
      <trkpt lat="49.1759" lon="6.15369">
        <ele>166</ele>
        <time>2019-07-20T10:03:02Z</time>
      </trkpt>
      <trkpt lat="49.1758" lon="6.15276">
        <ele>166</ele>
        <time>2019-07-20T10:03:12Z</time>
      </trkpt>
      <trkpt lat="49.1759" lon="6.1524">
        <ele>166</ele>
        <time>2019-07-20T10:03:20Z</time>
      </trkpt>
      <trkpt lat="49.17578" lon="6.15219">
        <ele>166</ele>
        <time>2019-07-20T10:03:28Z</time>
      </trkpt>
      <trkpt lat="49.17575" lon="6.15221">
        <ele>166</ele>
        <time>2019-07-20T10:03:29Z</time>
      </trkpt>
      <trkpt lat="49.17503" lon="6.15238">
        <ele>166</ele>
        <time>2019-07-20T10:03:47Z</time>
      </trkpt>
      <trkpt lat="49.17466" lon="6.15232">
        <ele>167</ele>
        <time>2019-07-20T10:03:57Z</time>
      </trkpt>
      <trkpt lat="49.17455" lon="6.15207">
        <ele>167</ele>
        <time>2019-07-20T10:04:02Z</time>
      </trkpt>
      <trkpt lat="49.17453" lon="6.15165">
        <ele>166</ele>
        <time>2019-07-20T10:04:08Z</time>
      </trkpt>
      <trkpt lat="49.17443" lon="6.15148">
        <ele>166</ele>
        <time>2019-07-20T10:04:12Z</time>
      </trkpt>
      <trkpt lat="49.17365" lon="6.15154">
        <ele>169</ele>
        <time>2019-07-20T10:04:31Z</time>
      </trkpt>
      <trkpt lat="49.17296" lon="6.15154">
        <ele>170</ele>
        <time>2019-07-20T10:04:47Z</time>
      </trkpt>
      <trkpt lat="49.17258" lon="6.15154">
        <ele>171</ele>
        <time>2019-07-20T10:04:56Z</time>
      </trkpt>
      <trkpt lat="49.17252" lon="6.1512">
        <ele>170</ele>
        <time>2019-07-20T10:05:03Z</time>
      </trkpt>
      <trkpt lat="49.17226" lon="6.1511">
        <ele>171</ele>
        <time>2019-07-20T10:05:13Z</time>
      </trkpt>
      <trkpt lat="49.17222" lon="6.15109">
        <ele>171</ele>
        <time>2019-07-20T10:05:16Z</time>
      </trkpt>
      <trkpt lat="49.17215" lon="6.15142">
        <ele>171</ele>
        <time>2019-07-20T10:05:24Z</time>
      </trkpt>
      <trkpt lat="49.17214" lon="6.15156">
        <ele>171</ele>
        <time>2019-07-20T10:05:26Z</time>
      </trkpt>
      <trkpt lat="49.17209" lon="6.15191">
        <ele>171</ele>
        <time>2019-07-20T10:05:31Z</time>
      </trkpt>
      <trkpt lat="49.17203" lon="6.15262">
        <ele>171</ele>
        <time>2019-07-20T10:05:41Z</time>
      </trkpt>
      <trkpt lat="49.172" lon="6.15289">
        <ele>171</ele>
        <time>2019-07-20T10:05:50Z</time>
      </trkpt>
      <trkpt lat="49.17168" lon="6.15293">
        <ele>171</ele>
        <time>2019-07-20T10:06:00Z</time>
      </trkpt>
      <trkpt lat="49.17086" lon="6.15306">
        <ele>169</ele>
        <time>2019-07-20T10:06:17Z</time>
      </trkpt>
      <trkpt lat="49.17006" lon="6.15315">
        <ele>169</ele>
        <time>2019-07-20T10:06:32Z</time>
      </trkpt>
      <trkpt lat="49.16897" lon="6.15322">
        <ele>168</ele>
        <time>2019-07-20T10:06:50Z</time>
      </trkpt>
      <trkpt lat="49.16779" lon="6.15338">
        <ele>167</ele>
        <time>2019-07-20T10:07:08Z</time>
      </trkpt>
      <trkpt lat="49.16689" lon="6.15349">
        <ele>166</ele>
        <time>2019-07-20T10:07:23Z</time>
      </trkpt>
      <trkpt lat="49.16591" lon="6.15361">
        <ele>166</ele>
        <time>2019-07-20T10:07:42Z</time>
      </trkpt>
      <trkpt lat="49.16506" lon="6.15364">
        <ele>166</ele>
        <time>2019-07-20T10:07:59Z</time>
      </trkpt>
      <trkpt lat="49.16422" lon="6.15375">
        <ele>166</ele>
        <time>2019-07-20T10:08:16Z</time>
      </trkpt>
      <trkpt lat="49.16345" lon="6.15389">
        <ele>166</ele>
        <time>2019-07-20T10:08:32Z</time>
      </trkpt>
      <trkpt lat="49.1634" lon="6.1539">
        <ele>166</ele>
        <time>2019-07-20T10:08:33Z</time>
      </trkpt>
      <trkpt lat="49.16264" lon="6.15405">
        <ele>166</ele>
        <time>2019-07-20T10:08:48Z</time>
      </trkpt>
      <trkpt lat="49.16178" lon="6.15416">
        <ele>165</ele>
        <time>2019-07-20T10:09:05Z</time>
      </trkpt>
      <trkpt lat="49.16074" lon="6.1543">
        <ele>167</ele>
        <time>2019-07-20T10:09:25Z</time>
      </trkpt>
      <trkpt lat="49.1598" lon="6.15439">
        <ele>166</ele>
        <time>2019-07-20T10:09:42Z</time>
      </trkpt>
      <trkpt lat="49.15956" lon="6.15434">
        <ele>166</ele>
        <time>2019-07-20T10:09:46Z</time>
      </trkpt>
      <trkpt lat="49.15939" lon="6.15436">
        <ele>166</ele>
        <time>2019-07-20T10:09:49Z</time>
      </trkpt>
      <trkpt lat="49.15912" lon="6.15449">
        <ele>166</ele>
        <time>2019-07-20T10:09:54Z</time>
      </trkpt>
      <trkpt lat="49.1589" lon="6.1545">
        <ele>166</ele>
        <time>2019-07-20T10:09:58Z</time>
      </trkpt>
      <trkpt lat="49.15861" lon="6.15453">
        <ele>166</ele>
        <time>2019-07-20T10:10:04Z</time>
      </trkpt>
      <trkpt lat="49.1578" lon="6.15463">
        <ele>167</ele>
        <time>2019-07-20T10:10:22Z</time>
      </trkpt>
      <trkpt lat="49.15726" lon="6.1547">
        <ele>168</ele>
        <time>2019-07-20T10:10:34Z</time>
      </trkpt>
      <trkpt lat="49.15686" lon="6.15474">
        <ele>168</ele>
        <time>2019-07-20T10:10:45Z</time>
      </trkpt>
      <trkpt lat="49.15667" lon="6.15482">
        <ele>168</ele>
        <time>2019-07-20T10:10:51Z</time>
      </trkpt>
      <trkpt lat="49.15585" lon="6.15495">
        <ele>169</ele>
        <time>2019-07-20T10:11:09Z</time>
      </trkpt>
      <trkpt lat="49.15571" lon="6.15497">
        <ele>169</ele>
        <time>2019-07-20T10:11:12Z</time>
      </trkpt>
      <trkpt lat="49.15558" lon="6.155">
        <ele>169</ele>
        <time>2019-07-20T10:11:15Z</time>
      </trkpt>
      <trkpt lat="49.15549" lon="6.15501">
        <ele>169</ele>
        <time>2019-07-20T10:11:17Z</time>
      </trkpt>
      <trkpt lat="49.15531" lon="6.15493">
        <ele>170</ele>
        <time>2019-07-20T10:11:21Z</time>
      </trkpt>
      <trkpt lat="49.15487" lon="6.1541">
        <ele>170</ele>
        <time>2019-07-20T10:11:34Z</time>
      </trkpt>
      <trkpt lat="49.15485" lon="6.15404">
        <ele>170</ele>
        <time>2019-07-20T10:11:35Z</time>
      </trkpt>
      <trkpt lat="49.15446" lon="6.1532">
        <ele>169</ele>
        <time>2019-07-20T10:11:50Z</time>
      </trkpt>
      <trkpt lat="49.15421" lon="6.15265">
        <ele>170</ele>
        <time>2019-07-20T10:12:01Z</time>
      </trkpt>
      <trkpt lat="49.15383" lon="6.15186">
        <ele>170</ele>
        <time>2019-07-20T10:12:14Z</time>
      </trkpt>
      <trkpt lat="49.15337" lon="6.15091">
        <ele>170</ele>
        <time>2019-07-20T10:12:29Z</time>
      </trkpt>
      <trkpt lat="49.15296" lon="6.15006">
        <ele>171</ele>
        <time>2019-07-20T10:12:43Z</time>
      </trkpt>
      <trkpt lat="49.15266" lon="6.14945">
        <ele>172</ele>
        <time>2019-07-20T10:12:53Z</time>
      </trkpt>
      <trkpt lat="49.15254" lon="6.1492">
        <ele>173</ele>
        <time>2019-07-20T10:12:57Z</time>
      </trkpt>
      <trkpt lat="49.15245" lon="6.14896">
        <ele>173</ele>
        <time>2019-07-20T10:13:03Z</time>
      </trkpt>
      <trkpt lat="49.15241" lon="6.1489">
        <ele>173</ele>
        <time>2019-07-20T10:13:07Z</time>
      </trkpt>
      <trkpt lat="49.15232" lon="6.14874">
        <ele>173</ele>
        <time>2019-07-20T10:13:15Z</time>
      </trkpt>
      <trkpt lat="49.15205" lon="6.14809">
        <ele>173</ele>
        <time>2019-07-20T10:13:26Z</time>
      </trkpt>
      <trkpt lat="49.152" lon="6.14772">
        <ele>173</ele>
        <time>2019-07-20T10:13:31Z</time>
      </trkpt>
      <trkpt lat="49.15197" lon="6.1475">
        <ele>173</ele>
        <time>2019-07-20T10:13:34Z</time>
      </trkpt>
      <trkpt lat="49.15197" lon="6.14729">
        <ele>173</ele>
        <time>2019-07-20T10:13:39Z</time>
      </trkpt>
      <trkpt lat="49.15193" lon="6.14693">
        <ele>174</ele>
        <time>2019-07-20T10:13:54Z</time>
      </trkpt>
      <trkpt lat="49.15193" lon="6.14679">
        <ele>174</ele>
        <time>2019-07-20T10:13:59Z</time>
      </trkpt>
      <trkpt lat="49.15178" lon="6.14673">
        <ele>174</ele>
        <time>2019-07-20T10:14:05Z</time>
      </trkpt>
      <trkpt lat="49.15125" lon="6.14733">
        <ele>172</ele>
        <time>2019-07-20T10:14:21Z</time>
      </trkpt>
      <trkpt lat="49.15073" lon="6.14794">
        <ele>171</ele>
        <time>2019-07-20T10:14:35Z</time>
      </trkpt>
      <trkpt lat="49.15051" lon="6.14818">
        <ele>171</ele>
        <time>2019-07-20T10:14:40Z</time>
      </trkpt>
      <trkpt lat="49.15033" lon="6.14809">
        <ele>171</ele>
        <time>2019-07-20T10:14:44Z</time>
      </trkpt>
      <trkpt lat="49.15023" lon="6.14784">
        <ele>171</ele>
        <time>2019-07-20T10:14:48Z</time>
      </trkpt>
      <trkpt lat="49.15012" lon="6.14757">
        <ele>172</ele>
        <time>2019-07-20T10:14:53Z</time>
      </trkpt>
      <trkpt lat="49.15003" lon="6.14751">
        <ele>172</ele>
        <time>2019-07-20T10:14:57Z</time>
      </trkpt>
      <trkpt lat="49.14973" lon="6.14754">
        <ele>171</ele>
        <time>2019-07-20T10:15:05Z</time>
      </trkpt>
      <trkpt lat="49.14957" lon="6.14749">
        <ele>173</ele>
        <time>2019-07-20T10:15:09Z</time>
      </trkpt>
      <trkpt lat="49.14895" lon="6.14735">
        <ele>173</ele>
        <time>2019-07-20T10:15:25Z</time>
      </trkpt>
      <trkpt lat="49.1484" lon="6.14737">
        <ele>174</ele>
        <time>2019-07-20T10:15:39Z</time>
      </trkpt>
      <trkpt lat="49.14835" lon="6.14757">
        <ele>173</ele>
        <time>2019-07-20T10:15:43Z</time>
      </trkpt>
      <trkpt lat="49.14829" lon="6.14784">
        <ele>171</ele>
        <time>2019-07-20T10:15:47Z</time>
      </trkpt>
      <trkpt lat="49.14794" lon="6.1487">
        <ele>169</ele>
        <time>2019-07-20T10:16:01Z</time>
      </trkpt>
      <trkpt lat="49.14787" lon="6.14894">
        <ele>169</ele>
        <time>2019-07-20T10:16:06Z</time>
      </trkpt>
      <trkpt lat="49.14772" lon="6.14892">
        <ele>169</ele>
        <time>2019-07-20T10:16:12Z</time>
      </trkpt>
      <trkpt lat="49.14733" lon="6.1483">
        <ele>169</ele>
        <time>2019-07-20T10:16:26Z</time>
      </trkpt>
      <trkpt lat="49.14703" lon="6.14789">
        <ele>170</ele>
        <time>2019-07-20T10:16:35Z</time>
      </trkpt>
      <trkpt lat="49.14679" lon="6.14768">
        <ele>171</ele>
        <time>2019-07-20T10:16:41Z</time>
      </trkpt>
      <trkpt lat="49.14657" lon="6.14755">
        <ele>172</ele>
        <time>2019-07-20T10:16:46Z</time>
      </trkpt>
      <trkpt lat="49.14628" lon="6.14755">
        <ele>171</ele>
        <time>2019-07-20T10:16:53Z</time>
      </trkpt>
      <trkpt lat="49.14558" lon="6.14785">
        <ele>170</ele>
        <time>2019-07-20T10:17:10Z</time>
      </trkpt>
      <trkpt lat="49.14543" lon="6.14788">
        <ele>170</ele>
        <time>2019-07-20T10:17:13Z</time>
      </trkpt>
      <trkpt lat="49.14471" lon="6.14792">
        <ele>169</ele>
        <time>2019-07-20T10:17:27Z</time>
      </trkpt>
      <trkpt lat="49.14442" lon="6.14804">
        <ele>169</ele>
        <time>2019-07-20T10:17:33Z</time>
      </trkpt>
      <trkpt lat="49.14375" lon="6.14794">
        <ele>169</ele>
        <time>2019-07-20T10:17:47Z</time>
      </trkpt>
      <trkpt lat="49.14345" lon="6.14776">
        <ele>169</ele>
        <time>2019-07-20T10:17:54Z</time>
      </trkpt>
      <trkpt lat="49.14265" lon="6.14783">
        <ele>170</ele>
        <time>2019-07-20T10:18:09Z</time>
      </trkpt>
      <trkpt lat="49.14176" lon="6.14802">
        <ele>170</ele>
        <time>2019-07-20T10:18:26Z</time>
      </trkpt>
      <trkpt lat="49.1416" lon="6.14806">
        <ele>170</ele>
        <time>2019-07-20T10:18:29Z</time>
      </trkpt>
      <trkpt lat="49.14123" lon="6.14823">
        <ele>170</ele>
        <time>2019-07-20T10:18:36Z</time>
      </trkpt>
      <trkpt lat="49.14095" lon="6.14833">
        <ele>169</ele>
        <time>2019-07-20T10:18:45Z</time>
      </trkpt>
      <trkpt lat="49.14085" lon="6.14839">
        <ele>168</ele>
        <time>2019-07-20T10:18:52Z</time>
      </trkpt>
      <trkpt lat="49.14086" lon="6.14858">
        <ele>168</ele>
        <time>2019-07-20T10:18:57Z</time>
      </trkpt>
      <trkpt lat="49.14099" lon="6.14967">
        <ele>167</ele>
        <time>2019-07-20T10:19:13Z</time>
      </trkpt>
      <trkpt lat="49.14108" lon="6.15014">
        <ele>167</ele>
        <time>2019-07-20T10:19:19Z</time>
      </trkpt>
      <trkpt lat="49.14113" lon="6.15068">
        <ele>167</ele>
        <time>2019-07-20T10:19:26Z</time>
      </trkpt>
      <trkpt lat="49.14114" lon="6.15092">
        <ele>167</ele>
        <time>2019-07-20T10:19:29Z</time>
      </trkpt>
      <trkpt lat="49.14125" lon="6.1521">
        <ele>167</ele>
        <time>2019-07-20T10:19:44Z</time>
      </trkpt>
      <trkpt lat="49.14129" lon="6.15249">
        <ele>167</ele>
        <time>2019-07-20T10:19:50Z</time>
      </trkpt>
      <trkpt lat="49.14126" lon="6.15263">
        <ele>167</ele>
        <time>2019-07-20T10:19:53Z</time>
      </trkpt>
      <trkpt lat="49.14111" lon="6.15275">
        <ele>167</ele>
        <time>2019-07-20T10:19:57Z</time>
      </trkpt>
      <trkpt lat="49.14047" lon="6.15308">
        <ele>167</ele>
        <time>2019-07-20T10:20:10Z</time>
      </trkpt>
      <trkpt lat="49.14025" lon="6.15323">
        <ele>167</ele>
        <time>2019-07-20T10:20:15Z</time>
      </trkpt>
      <trkpt lat="49.14016" lon="6.15327">
        <ele>167</ele>
        <time>2019-07-20T10:20:17Z</time>
      </trkpt>
      <trkpt lat="49.13957" lon="6.15345">
        <ele>166</ele>
        <time>2019-07-20T10:20:30Z</time>
      </trkpt>
      <trkpt lat="49.13888" lon="6.15355">
        <ele>165</ele>
        <time>2019-07-20T10:20:43Z</time>
      </trkpt>
      <trkpt lat="49.1387" lon="6.15358">
        <ele>165</ele>
        <time>2019-07-20T10:20:46Z</time>
      </trkpt>
      <trkpt lat="49.13842" lon="6.15377">
        <ele>165</ele>
        <time>2019-07-20T10:20:51Z</time>
      </trkpt>
      <trkpt lat="49.13833" lon="6.15389">
        <ele>164</ele>
        <time>2019-07-20T10:20:53Z</time>
      </trkpt>
      <trkpt lat="49.13819" lon="6.15405">
        <ele>164</ele>
        <time>2019-07-20T10:20:57Z</time>
      </trkpt>
      <trkpt lat="49.13805" lon="6.15423">
        <ele>165</ele>
        <time>2019-07-20T10:21:01Z</time>
      </trkpt>
      <trkpt lat="49.13789" lon="6.15453">
        <ele>165</ele>
        <time>2019-07-20T10:21:06Z</time>
      </trkpt>
      <trkpt lat="49.13784" lon="6.15466">
        <ele>165</ele>
        <time>2019-07-20T10:21:08Z</time>
      </trkpt>
      <trkpt lat="49.13764" lon="6.15503">
        <ele>165</ele>
        <time>2019-07-20T10:21:14Z</time>
      </trkpt>
      <trkpt lat="49.1375" lon="6.15528">
        <ele>165</ele>
        <time>2019-07-20T10:21:18Z</time>
      </trkpt>
      <trkpt lat="49.13723" lon="6.15561">
        <ele>165</ele>
        <time>2019-07-20T10:21:26Z</time>
      </trkpt>
      <trkpt lat="49.13719" lon="6.15555">
        <ele>165</ele>
        <time>2019-07-20T10:21:31Z</time>
      </trkpt>
      <trkpt lat="49.13749" lon="6.15526">
        <ele>165</ele>
        <time>2019-07-20T10:21:42Z</time>
      </trkpt>
      <trkpt lat="49.13756" lon="6.1551">
        <ele>165</ele>
        <time>2019-07-20T10:21:46Z</time>
      </trkpt>
      <trkpt lat="49.13743" lon="6.15457">
        <ele>165</ele>
        <time>2019-07-20T10:21:56Z</time>
      </trkpt>
      <trkpt lat="49.13721" lon="6.15409">
        <ele>164</ele>
        <time>2019-07-20T10:22:08Z</time>
      </trkpt>
      <trkpt lat="49.13679" lon="6.15394">
        <ele>164</ele>
        <time>2019-07-20T10:22:20Z</time>
      </trkpt>
      <trkpt lat="49.13624" lon="6.15359">
        <ele>165</ele>
        <time>2019-07-20T10:22:36Z</time>
      </trkpt>
      <trkpt lat="49.13619" lon="6.15348">
        <ele>165</ele>
        <time>2019-07-20T10:22:38Z</time>
      </trkpt>
      <trkpt lat="49.13614" lon="6.15324">
        <ele>164</ele>
        <time>2019-07-20T10:22:42Z</time>
      </trkpt>
      <trkpt lat="49.13612" lon="6.1527">
        <ele>164</ele>
        <time>2019-07-20T10:22:54Z</time>
      </trkpt>
      <trkpt lat="49.13613" lon="6.15266">
        <ele>164</ele>
        <time>2019-07-20T10:22:56Z</time>
      </trkpt>
      <trkpt lat="49.13595" lon="6.15232">
        <ele>164</ele>
        <time>2019-07-20T10:23:07Z</time>
      </trkpt>
      <trkpt lat="49.13571" lon="6.15194">
        <ele>164</ele>
        <time>2019-07-20T10:23:20Z</time>
      </trkpt>
      <trkpt lat="49.13543" lon="6.15141">
        <ele>164</ele>
        <time>2019-07-20T10:23:33Z</time>
      </trkpt>
      <trkpt lat="49.13512" lon="6.15081">
        <ele>164</ele>
        <time>2019-07-20T10:23:46Z</time>
      </trkpt>
      <trkpt lat="49.13493" lon="6.15042">
        <ele>165</ele>
        <time>2019-07-20T10:23:58Z</time>
      </trkpt>
      <trkpt lat="49.13492" lon="6.1504">
        <ele>165</ele>
        <time>2019-07-20T10:24:13Z</time>
      </trkpt>
      <trkpt lat="49.13491" lon="6.1504">
        <ele>165</ele>
        <time>2019-07-20T10:24:30Z</time>
      </trkpt>
      <trkpt lat="49.13471" lon="6.15025">
        <ele>165</ele>
        <time>2019-07-20T10:24:38Z</time>
      </trkpt>
      <trkpt lat="49.13454" lon="6.15012">
        <ele>165</ele>
        <time>2019-07-20T10:24:42Z</time>
      </trkpt>
      <trkpt lat="49.13444" lon="6.15006">
        <ele>165</ele>
        <time>2019-07-20T10:24:44Z</time>
      </trkpt>
      <trkpt lat="49.134" lon="6.14993">
        <ele>166</ele>
        <time>2019-07-20T10:24:53Z</time>
      </trkpt>
      <trkpt lat="49.13364" lon="6.14987">
        <ele>166</ele>
        <time>2019-07-20T10:25:00Z</time>
      </trkpt>
      <trkpt lat="49.13281" lon="6.14991">
        <ele>166</ele>
        <time>2019-07-20T10:25:16Z</time>
      </trkpt>
      <trkpt lat="49.13209" lon="6.14995">
        <ele>166</ele>
        <time>2019-07-20T10:25:31Z</time>
      </trkpt>
      <trkpt lat="49.13179" lon="6.14996">
        <ele>167</ele>
        <time>2019-07-20T10:25:37Z</time>
      </trkpt>
      <trkpt lat="49.13136" lon="6.14995">
        <ele>167</ele>
        <time>2019-07-20T10:25:46Z</time>
      </trkpt>
      <trkpt lat="49.13131" lon="6.14997">
        <ele>167</ele>
        <time>2019-07-20T10:25:47Z</time>
      </trkpt>
      <trkpt lat="49.1305" lon="6.14982">
        <ele>167</ele>
        <time>2019-07-20T10:26:02Z</time>
      </trkpt>
      <trkpt lat="49.13031" lon="6.1498">
        <ele>166</ele>
        <time>2019-07-20T10:26:06Z</time>
      </trkpt>
      <trkpt lat="49.13012" lon="6.14974">
        <ele>166</ele>
        <time>2019-07-20T10:26:10Z</time>
      </trkpt>
      <trkpt lat="49.1296" lon="6.14968">
        <ele>166</ele>
        <time>2019-07-20T10:26:20Z</time>
      </trkpt>
      <trkpt lat="49.12932" lon="6.1495">
        <ele>167</ele>
        <time>2019-07-20T10:26:26Z</time>
      </trkpt>
      <trkpt lat="49.12929" lon="6.14929">
        <ele>167</ele>
        <time>2019-07-20T10:26:30Z</time>
      </trkpt>
      <trkpt lat="49.1293" lon="6.14903">
        <ele>167</ele>
        <time>2019-07-20T10:26:34Z</time>
      </trkpt>
      <trkpt lat="49.12931" lon="6.14875">
        <ele>167</ele>
        <time>2019-07-20T10:26:38Z</time>
      </trkpt>
      <trkpt lat="49.12941" lon="6.14757">
        <ele>167</ele>
        <time>2019-07-20T10:26:55Z</time>
      </trkpt>
      <trkpt lat="49.12934" lon="6.14725">
        <ele>168</ele>
        <time>2019-07-20T10:27:01Z</time>
      </trkpt>
      <trkpt lat="49.12924" lon="6.14716">
        <ele>168</ele>
        <time>2019-07-20T10:27:04Z</time>
      </trkpt>
      <trkpt lat="49.12868" lon="6.14698">
        <ele>170</ele>
        <time>2019-07-20T10:27:18Z</time>
      </trkpt>
      <trkpt lat="49.12851" lon="6.14696">
        <ele>170</ele>
        <time>2019-07-20T10:27:24Z</time>
      </trkpt>
      <trkpt lat="49.12846" lon="6.14675">
        <ele>170</ele>
        <time>2019-07-20T10:27:31Z</time>
      </trkpt>
      <trkpt lat="49.12849" lon="6.14574">
        <ele>171</ele>
        <time>2019-07-20T10:27:45Z</time>
      </trkpt>
      <trkpt lat="49.12848" lon="6.14548">
        <ele>171</ele>
        <time>2019-07-20T10:27:55Z</time>
      </trkpt>
      <trkpt lat="49.1285" lon="6.14538">
        <ele>172</ele>
        <time>2019-07-20T10:27:59Z</time>
      </trkpt>
      <trkpt lat="49.12851" lon="6.14524">
        <ele>172</ele>
        <time>2019-07-20T10:28:08Z</time>
      </trkpt>
      <trkpt lat="49.12851" lon="6.14524">
        <ele>172</ele>
        <time>2019-07-20T10:28:12Z</time>
      </trkpt>
      <trkpt lat="49.1285" lon="6.14516">
        <ele>172</ele>
        <time>2019-07-20T10:28:17Z</time>
      </trkpt>
      <trkpt lat="49.1284" lon="6.14504">
        <ele>172</ele>
        <time>2019-07-20T10:28:22Z</time>
      </trkpt>
      <trkpt lat="49.12778" lon="6.14503">
        <ele>171</ele>
        <time>2019-07-20T10:28:35Z</time>
      </trkpt>
      <trkpt lat="49.12697" lon="6.14512">
        <ele>170</ele>
        <time>2019-07-20T10:28:51Z</time>
      </trkpt>
      <trkpt lat="49.12677" lon="6.14514">
        <ele>170</ele>
        <time>2019-07-20T10:28:55Z</time>
      </trkpt>
      <trkpt lat="49.12657" lon="6.14512">
        <ele>170</ele>
        <time>2019-07-20T10:28:59Z</time>
      </trkpt>
      <trkpt lat="49.12574" lon="6.14493">
        <ele>172</ele>
        <time>2019-07-20T10:29:15Z</time>
      </trkpt>
      <trkpt lat="49.1251" lon="6.14475">
        <ele>171</ele>
        <time>2019-07-20T10:29:27Z</time>
      </trkpt>
      <trkpt lat="49.12474" lon="6.14457">
        <ele>170</ele>
        <time>2019-07-20T10:29:36Z</time>
      </trkpt>
      <trkpt lat="49.12459" lon="6.14449">
        <ele>171</ele>
        <time>2019-07-20T10:29:40Z</time>
      </trkpt>
      <trkpt lat="49.12443" lon="6.14457">
        <ele>171</ele>
        <time>2019-07-20T10:29:45Z</time>
      </trkpt>
      <trkpt lat="49.12421" lon="6.14527">
        <ele>169</ele>
        <time>2019-07-20T10:29:56Z</time>
      </trkpt>
      <trkpt lat="49.1239" lon="6.14614">
        <ele>167</ele>
        <time>2019-07-20T10:30:09Z</time>
      </trkpt>
      <trkpt lat="49.12388" lon="6.14621">
        <ele>167</ele>
        <time>2019-07-20T10:30:10Z</time>
      </trkpt>
      <trkpt lat="49.12363" lon="6.147">
        <ele>167</ele>
        <time>2019-07-20T10:30:21Z</time>
      </trkpt>
      <trkpt lat="49.12334" lon="6.14754">
        <ele>167</ele>
        <time>2019-07-20T10:30:31Z</time>
      </trkpt>
      <trkpt lat="49.12297" lon="6.14811">
        <ele>167</ele>
        <time>2019-07-20T10:30:42Z</time>
      </trkpt>
      <trkpt lat="49.12282" lon="6.1481">
        <ele>167</ele>
        <time>2019-07-20T10:30:46Z</time>
      </trkpt>
      <trkpt lat="49.12268" lon="6.1479">
        <ele>167</ele>
        <time>2019-07-20T10:30:50Z</time>
      </trkpt>
      <trkpt lat="49.12212" lon="6.14715">
        <ele>166</ele>
        <time>2019-07-20T10:31:06Z</time>
      </trkpt>
      <trkpt lat="49.12178" lon="6.14673">
        <ele>166</ele>
        <time>2019-07-20T10:31:15Z</time>
      </trkpt>
      <trkpt lat="49.12169" lon="6.1465">
        <ele>166</ele>
        <time>2019-07-20T10:31:19Z</time>
      </trkpt>
      <trkpt lat="49.12176" lon="6.14628">
        <ele>166</ele>
        <time>2019-07-20T10:31:23Z</time>
      </trkpt>
      <trkpt lat="49.12189" lon="6.14598">
        <ele>166</ele>
        <time>2019-07-20T10:31:28Z</time>
      </trkpt>
      <trkpt lat="49.12201" lon="6.14574">
        <ele>166</ele>
        <time>2019-07-20T10:31:33Z</time>
      </trkpt>
      <trkpt lat="49.12192" lon="6.14559">
        <ele>166</ele>
        <time>2019-07-20T10:31:37Z</time>
      </trkpt>
      <trkpt lat="49.12154" lon="6.14507">
        <ele>166</ele>
        <time>2019-07-20T10:31:48Z</time>
      </trkpt>
      <trkpt lat="49.12151" lon="6.14475">
        <ele>166</ele>
        <time>2019-07-20T10:31:53Z</time>
      </trkpt>
      <trkpt lat="49.12158" lon="6.14358">
        <ele>166</ele>
        <time>2019-07-20T10:32:09Z</time>
      </trkpt>
      <trkpt lat="49.12161" lon="6.14331">
        <ele>167</ele>
        <time>2019-07-20T10:32:13Z</time>
      </trkpt>
      <trkpt lat="49.12166" lon="6.14269">
        <ele>170</ele>
        <time>2019-07-20T10:32:22Z</time>
      </trkpt>
      <trkpt lat="49.12167" lon="6.14233">
        <ele>173</ele>
        <time>2019-07-20T10:32:28Z</time>
      </trkpt>
      <trkpt lat="49.1213" lon="6.14213">
        <ele>175</ele>
        <time>2019-07-20T10:32:39Z</time>
      </trkpt>
      <trkpt lat="49.12091" lon="6.14192">
        <ele>176</ele>
        <time>2019-07-20T10:32:52Z</time>
      </trkpt>
      <trkpt lat="49.12059" lon="6.14156">
        <ele>181</ele>
        <time>2019-07-20T10:33:05Z</time>
      </trkpt>
      <trkpt lat="49.12026" lon="6.14118">
        <ele>183</ele>
        <time>2019-07-20T10:33:18Z</time>
      </trkpt>
      <trkpt lat="49.11988" lon="6.14081">
        <ele>187</ele>
        <time>2019-07-20T10:33:32Z</time>
      </trkpt>
      <trkpt lat="49.11947" lon="6.14048">
        <ele>188</ele>
        <time>2019-07-20T10:33:46Z</time>
      </trkpt>
      <trkpt lat="49.1193" lon="6.14021">
        <ele>189</ele>
        <time>2019-07-20T10:33:56Z</time>
      </trkpt>
      <trkpt lat="49.11952" lon="6.1401">
        <ele>190</ele>
        <time>2019-07-20T10:34:05Z</time>
      </trkpt>
      <trkpt lat="49.1199" lon="6.14025">
        <ele>192</ele>
        <time>2019-07-20T10:34:19Z</time>
      </trkpt>
      <trkpt lat="49.1203" lon="6.14041">
        <ele>198</ele>
        <time>2019-07-20T10:34:33Z</time>
      </trkpt>
      <trkpt lat="49.12072" lon="6.14045">
        <ele>200</ele>
        <time>2019-07-20T10:34:47Z</time>
      </trkpt>
      <trkpt lat="49.12116" lon="6.14052">
        <ele>203</ele>
        <time>2019-07-20T10:35:02Z</time>
      </trkpt>
      <trkpt lat="49.1214" lon="6.14056">
        <ele>202</ele>
        <time>2019-07-20T10:35:11Z</time>
      </trkpt>
      <trkpt lat="49.1215" lon="6.14029">
        <ele>205</ele>
        <time>2019-07-20T10:35:21Z</time>
      </trkpt>
      <trkpt lat="49.12148" lon="6.14028">
        <ele>205</ele>
        <time>2019-07-20T10:35:22Z</time>
      </trkpt>
      <trkpt lat="49.12108" lon="6.14014">
        <ele>207</ele>
        <time>2019-07-20T10:35:36Z</time>
      </trkpt>
      <trkpt lat="49.12069" lon="6.1399">
        <ele>213</ele>
        <time>2019-07-20T10:35:51Z</time>
      </trkpt>
      <trkpt lat="49.12037" lon="6.13952">
        <ele>213</ele>
        <time>2019-07-20T10:36:05Z</time>
      </trkpt>
      <trkpt lat="49.12006" lon="6.13903">
        <ele>217</ele>
        <time>2019-07-20T10:36:20Z</time>
      </trkpt>
      <trkpt lat="49.11981" lon="6.13845">
        <ele>213</ele>
        <time>2019-07-20T10:36:35Z</time>
      </trkpt>
      <trkpt lat="49.11963" lon="6.13785">
        <ele>216</ele>
        <time>2019-07-20T10:36:50Z</time>
      </trkpt>
      <trkpt lat="49.11942" lon="6.13737">
        <ele>221</ele>
        <time>2019-07-20T10:37:03Z</time>
      </trkpt>
      <trkpt lat="49.1192" lon="6.13696">
        <ele>223</ele>
        <time>2019-07-20T10:37:15Z</time>
      </trkpt>
      <trkpt lat="49.1193" lon="6.13672">
        <ele>225</ele>
        <time>2019-07-20T10:37:25Z</time>
      </trkpt>
      <trkpt lat="49.11935" lon="6.13676">
        <ele>225</ele>
        <time>2019-07-20T10:37:27Z</time>
      </trkpt>
      <trkpt lat="49.11966" lon="6.13709">
        <ele>225</ele>
        <time>2019-07-20T10:37:40Z</time>
      </trkpt>
      <trkpt lat="49.11993" lon="6.13739">
        <ele>225</ele>
        <time>2019-07-20T10:37:53Z</time>
      </trkpt>
      <trkpt lat="49.1203" lon="6.13777">
        <ele>230</ele>
        <time>2019-07-20T10:38:08Z</time>
      </trkpt>
      <trkpt lat="49.12053" lon="6.1383">
        <ele>232</ele>
        <time>2019-07-20T10:38:22Z</time>
      </trkpt>
      <trkpt lat="49.12071" lon="6.13851">
        <ele>229</ele>
        <time>2019-07-20T10:38:31Z</time>
      </trkpt>
      <trkpt lat="49.1208" lon="6.13827">
        <ele>235</ele>
        <time>2019-07-20T10:38:38Z</time>
      </trkpt>
      <trkpt lat="49.12072" lon="6.1377">
        <ele>236</ele>
        <time>2019-07-20T10:38:52Z</time>
      </trkpt>
      <trkpt lat="49.12059" lon="6.13725">
        <ele>239</ele>
        <time>2019-07-20T10:39:04Z</time>
      </trkpt>
      <trkpt lat="49.12043" lon="6.13687">
        <ele>239</ele>
        <time>2019-07-20T10:39:16Z</time>
      </trkpt>
      <trkpt lat="49.12036" lon="6.13648">
        <ele>244</ele>
        <time>2019-07-20T10:39:26Z</time>
      </trkpt>
      <trkpt lat="49.12033" lon="6.13632">
        <ele>245</ele>
        <time>2019-07-20T10:39:30Z</time>
      </trkpt>
      <trkpt lat="49.12029" lon="6.13617">
        <ele>245</ele>
        <time>2019-07-20T10:39:34Z</time>
      </trkpt>
      <trkpt lat="49.12016" lon="6.13576">
        <ele>249</ele>
        <time>2019-07-20T10:39:45Z</time>
      </trkpt>
      <trkpt lat="49.11982" lon="6.13534">
        <ele>246</ele>
        <time>2019-07-20T10:39:59Z</time>
      </trkpt>
      <trkpt lat="49.1195" lon="6.13506">
        <ele>246</ele>
        <time>2019-07-20T10:40:12Z</time>
      </trkpt>
      <trkpt lat="49.11951" lon="6.13489">
        <ele>252</ele>
        <time>2019-07-20T10:40:16Z</time>
      </trkpt>
      <trkpt lat="49.11973" lon="6.13478">
        <ele>253</ele>
        <time>2019-07-20T10:40:26Z</time>
      </trkpt>
      <trkpt lat="49.12014" lon="6.13484">
        <ele>258</ele>
        <time>2019-07-20T10:40:41Z</time>
      </trkpt>
      <trkpt lat="49.12046" lon="6.13502">
        <ele>255</ele>
        <time>2019-07-20T10:40:54Z</time>
      </trkpt>
      <trkpt lat="49.12074" lon="6.13519">
        <ele>257</ele>
        <time>2019-07-20T10:41:06Z</time>
      </trkpt>
      <trkpt lat="49.12103" lon="6.13521">
        <ele>264</ele>
        <time>2019-07-20T10:41:18Z</time>
      </trkpt>
      <trkpt lat="49.1213" lon="6.13495">
        <ele>269</ele>
        <time>2019-07-20T10:41:32Z</time>
      </trkpt>
      <trkpt lat="49.12134" lon="6.13442">
        <ele>270</ele>
        <time>2019-07-20T10:41:46Z</time>
      </trkpt>
      <trkpt lat="49.12111" lon="6.13409">
        <ele>273</ele>
        <time>2019-07-20T10:41:59Z</time>
      </trkpt>
      <trkpt lat="49.12081" lon="6.13386">
        <ele>270</ele>
        <time>2019-07-20T10:42:14Z</time>
      </trkpt>
      <trkpt lat="49.12064" lon="6.13353">
        <ele>273</ele>
        <time>2019-07-20T10:42:26Z</time>
      </trkpt>
      <trkpt lat="49.1204" lon="6.13301">
        <ele>278</ele>
        <time>2019-07-20T10:42:42Z</time>
      </trkpt>
      <trkpt lat="49.12006" lon="6.13269">
        <ele>277</ele>
        <time>2019-07-20T10:42:56Z</time>
      </trkpt>
      <trkpt lat="49.11984" lon="6.13228">
        <ele>273</ele>
        <time>2019-07-20T10:43:10Z</time>
      </trkpt>
      <trkpt lat="49.11981" lon="6.13178">
        <ele>276</ele>
        <time>2019-07-20T10:43:22Z</time>
      </trkpt>
      <trkpt lat="49.11986" lon="6.13149">
        <ele>280</ele>
        <time>2019-07-20T10:43:30Z</time>
      </trkpt>
      <trkpt lat="49.11999" lon="6.13105">
        <ele>283</ele>
        <time>2019-07-20T10:43:43Z</time>
      </trkpt>
      <trkpt lat="49.12001" lon="6.13062">
        <ele>297</ele>
        <time>2019-07-20T10:43:55Z</time>
      </trkpt>
      <trkpt lat="49.12001" lon="6.13054">
        <ele>299</ele>
        <time>2019-07-20T10:43:58Z</time>
      </trkpt>
      <trkpt lat="49.11997" lon="6.13031">
        <ele>285</ele>
        <time>2019-07-20T10:44:05Z</time>
      </trkpt>
      <trkpt lat="49.11991" lon="6.12989">
        <ele>290</ele>
        <time>2019-07-20T10:44:18Z</time>
      </trkpt>
      <trkpt lat="49.11989" lon="6.12977">
        <ele>289</ele>
        <time>2019-07-20T10:44:22Z</time>
      </trkpt>
      <trkpt lat="49.11992" lon="6.12956">
        <ele>290</ele>
        <time>2019-07-20T10:44:29Z</time>
      </trkpt>
      <trkpt lat="49.11997" lon="6.12956">
        <ele>290</ele>
        <time>2019-07-20T10:44:33Z</time>
      </trkpt>
      <trkpt lat="49.12007" lon="6.12958">
        <ele>308</ele>
        <time>2019-07-20T10:44:38Z</time>
      </trkpt>
      <trkpt lat="49.12021" lon="6.12979">
        <ele>307</ele>
        <time>2019-07-20T10:44:49Z</time>
      </trkpt>
      <trkpt lat="49.12025" lon="6.13001">
        <ele>302</ele>
        <time>2019-07-20T10:44:56Z</time>
      </trkpt>
      <trkpt lat="49.12037" lon="6.13053">
        <ele>304</ele>
        <time>2019-07-20T10:45:10Z</time>
      </trkpt>
      <trkpt lat="49.12046" lon="6.1311">
        <ele>299</ele>
        <time>2019-07-20T10:45:27Z</time>
      </trkpt>
      <trkpt lat="49.12059" lon="6.13154">
        <ele>300</ele>
        <time>2019-07-20T10:45:39Z</time>
      </trkpt>
      <trkpt lat="49.12061" lon="6.13157">
        <ele>300</ele>
        <time>2019-07-20T10:45:40Z</time>
      </trkpt>
      <trkpt lat="49.12083" lon="6.13142">
        <ele>302</ele>
        <time>2019-07-20T10:45:51Z</time>
      </trkpt>
      <trkpt lat="49.12082" lon="6.1314">
        <ele>302</ele>
        <time>2019-07-20T10:45:52Z</time>
      </trkpt>
      <trkpt lat="49.12069" lon="6.13094">
        <ele>306</ele>
        <time>2019-07-20T10:46:07Z</time>
      </trkpt>
      <trkpt lat="49.12068" lon="6.13091">
        <ele>306</ele>
        <time>2019-07-20T10:46:08Z</time>
      </trkpt>
      <trkpt lat="49.12065" lon="6.13071">
        <ele>309</ele>
        <time>2019-07-20T10:46:13Z</time>
      </trkpt>
      <trkpt lat="49.12055" lon="6.13026">
        <ele>309</ele>
        <time>2019-07-20T10:46:26Z</time>
      </trkpt>
      <trkpt lat="49.12045" lon="6.12978">
        <ele>313</ele>
        <time>2019-07-20T10:46:40Z</time>
      </trkpt>
      <trkpt lat="49.12036" lon="6.12939">
        <ele>313</ele>
        <time>2019-07-20T10:46:52Z</time>
      </trkpt>
      <trkpt lat="49.1203" lon="6.12888">
        <ele>318</ele>
        <time>2019-07-20T10:47:06Z</time>
      </trkpt>
      <trkpt lat="49.12025" lon="6.1284">
        <ele>318</ele>
        <time>2019-07-20T10:47:20Z</time>
      </trkpt>
      <trkpt lat="49.12025" lon="6.12801">
        <ele>325</ele>
        <time>2019-07-20T10:47:31Z</time>
      </trkpt>
      <trkpt lat="49.12016" lon="6.12752">
        <ele>322</ele>
        <time>2019-07-20T10:47:45Z</time>
      </trkpt>
      <trkpt lat="49.12005" lon="6.12707">
        <ele>329</ele>
        <time>2019-07-20T10:47:58Z</time>
      </trkpt>
      <trkpt lat="49.11996" lon="6.12658">
        <ele>318</ele>
        <time>2019-07-20T10:48:11Z</time>
      </trkpt>
      <trkpt lat="49.11992" lon="6.1261">
        <ele>315</ele>
        <time>2019-07-20T10:48:23Z</time>
      </trkpt>
      <trkpt lat="49.11992" lon="6.12585">
        <ele>321</ele>
        <time>2019-07-20T10:48:30Z</time>
      </trkpt>
      <trkpt lat="49.11994" lon="6.12543">
        <ele>318</ele>
        <time>2019-07-20T10:48:44Z</time>
      </trkpt>
      <trkpt lat="49.11994" lon="6.12481">
        <ele>324</ele>
        <time>2019-07-20T10:48:59Z</time>
      </trkpt>
      <trkpt lat="49.11994" lon="6.12434">
        <ele>326</ele>
        <time>2019-07-20T10:49:13Z</time>
      </trkpt>
      <trkpt lat="49.11986" lon="6.12389">
        <ele>328</ele>
        <time>2019-07-20T10:49:27Z</time>
      </trkpt>
      <trkpt lat="49.11967" lon="6.1235">
        <ele>327</ele>
        <time>2019-07-20T10:49:40Z</time>
      </trkpt>
      <trkpt lat="49.11943" lon="6.12312">
        <ele>331</ele>
        <time>2019-07-20T10:49:54Z</time>
      </trkpt>
      <trkpt lat="49.11921" lon="6.12275">
        <ele>331</ele>
        <time>2019-07-20T10:50:05Z</time>
      </trkpt>
      <trkpt lat="49.11899" lon="6.12228">
        <ele>324</ele>
        <time>2019-07-20T10:50:16Z</time>
      </trkpt>
      <trkpt lat="49.11896" lon="6.12206">
        <ele>324</ele>
        <time>2019-07-20T10:50:27Z</time>
      </trkpt>
      <trkpt lat="49.11897" lon="6.12206">
        <ele>324</ele>
        <time>2019-07-20T10:50:43Z</time>
      </trkpt>
      <trkpt lat="49.11896" lon="6.12203">
        <ele>324</ele>
        <time>2019-07-20T10:51:13Z</time>
      </trkpt>
      <trkpt lat="49.11895" lon="6.122">
        <ele>324</ele>
        <time>2019-07-20T10:51:33Z</time>
      </trkpt>
      <trkpt lat="49.11892" lon="6.12178">
        <ele>325</ele>
        <time>2019-07-20T10:51:45Z</time>
      </trkpt>
      <trkpt lat="49.11885" lon="6.1216">
        <ele>328</ele>
        <time>2019-07-20T10:51:49Z</time>
      </trkpt>
      <trkpt lat="49.11879" lon="6.12149">
        <ele>327</ele>
        <time>2019-07-20T10:51:51Z</time>
      </trkpt>
      <trkpt lat="49.11874" lon="6.12135">
        <ele>327</ele>
        <time>2019-07-20T10:51:53Z</time>
      </trkpt>
      <trkpt lat="49.11851" lon="6.12084">
        <ele>324</ele>
        <time>2019-07-20T10:52:00Z</time>
      </trkpt>
      <trkpt lat="49.11794" lon="6.11981">
        <ele>310</ele>
        <time>2019-07-20T10:52:10Z</time>
      </trkpt>
      <trkpt lat="49.11746" lon="6.1182">
        <ele>292</ele>
        <time>2019-07-20T10:52:20Z</time>
      </trkpt>
      <trkpt lat="49.11739" lon="6.11787">
        <ele>289</ele>
        <time>2019-07-20T10:52:22Z</time>
      </trkpt>
      <trkpt lat="49.11732" lon="6.11725">
        <ele>287</ele>
        <time>2019-07-20T10:52:26Z</time>
      </trkpt>
      <trkpt lat="49.11714" lon="6.11682">
        <ele>284</ele>
        <time>2019-07-20T10:52:30Z</time>
      </trkpt>
      <trkpt lat="49.11635" lon="6.116">
        <ele>268</ele>
        <time>2019-07-20T10:52:43Z</time>
      </trkpt>
      <trkpt lat="49.11609" lon="6.11565">
        <ele>264</ele>
        <time>2019-07-20T10:52:53Z</time>
      </trkpt>
      <trkpt lat="49.11608" lon="6.11563">
        <ele>264</ele>
        <time>2019-07-20T10:53:06Z</time>
      </trkpt>
      <trkpt lat="49.11608" lon="6.11561">
        <ele>264</ele>
        <time>2019-07-20T10:53:29Z</time>
      </trkpt>
      <trkpt lat="49.11607" lon="6.11561">
        <ele>264</ele>
        <time>2019-07-20T10:53:40Z</time>
      </trkpt>
      <trkpt lat="49.11596" lon="6.11549">
        <ele>264</ele>
        <time>2019-07-20T10:53:45Z</time>
      </trkpt>
      <trkpt lat="49.11533" lon="6.11501">
        <ele>256</ele>
        <time>2019-07-20T10:53:57Z</time>
      </trkpt>
      <trkpt lat="49.11473" lon="6.11463">
        <ele>253</ele>
        <time>2019-07-20T10:54:06Z</time>
      </trkpt>
      <trkpt lat="49.11463" lon="6.11428">
        <ele>253</ele>
        <time>2019-07-20T10:54:13Z</time>
      </trkpt>
      <trkpt lat="49.11461" lon="6.11382">
        <ele>252</ele>
        <time>2019-07-20T10:54:21Z</time>
      </trkpt>
      <trkpt lat="49.11462" lon="6.11378">
        <ele>252</ele>
        <time>2019-07-20T10:54:23Z</time>
      </trkpt>
      <trkpt lat="49.11436" lon="6.11365">
        <ele>251</ele>
        <time>2019-07-20T10:54:33Z</time>
      </trkpt>
      <trkpt lat="49.11421" lon="6.1136">
        <ele>251</ele>
        <time>2019-07-20T10:54:37Z</time>
      </trkpt>
      <trkpt lat="49.11423" lon="6.11335">
        <ele>250</ele>
        <time>2019-07-20T10:54:43Z</time>
      </trkpt>
      <trkpt lat="49.1143" lon="6.11304">
        <ele>250</ele>
        <time>2019-07-20T10:54:48Z</time>
      </trkpt>
      <trkpt lat="49.11435" lon="6.11286">
        <ele>250</ele>
        <time>2019-07-20T10:54:51Z</time>
      </trkpt>
      <trkpt lat="49.1144" lon="6.11259">
        <ele>249</ele>
        <time>2019-07-20T10:54:55Z</time>
      </trkpt>
      <trkpt lat="49.11451" lon="6.11217">
        <ele>248</ele>
        <time>2019-07-20T10:55:02Z</time>
      </trkpt>
      <trkpt lat="49.11474" lon="6.11151">
        <ele>248</ele>
        <time>2019-07-20T10:55:12Z</time>
      </trkpt>
      <trkpt lat="49.11513" lon="6.11051">
        <ele>250</ele>
        <time>2019-07-20T10:55:26Z</time>
      </trkpt>
      <trkpt lat="49.11517" lon="6.11028">
        <ele>249</ele>
        <time>2019-07-20T10:55:29Z</time>
      </trkpt>
      <trkpt lat="49.11517" lon="6.10986">
        <ele>247</ele>
        <time>2019-07-20T10:55:35Z</time>
      </trkpt>
      <trkpt lat="49.11516" lon="6.1096">
        <ele>247</ele>
        <time>2019-07-20T10:55:38Z</time>
      </trkpt>
      <trkpt lat="49.11515" lon="6.10928">
        <ele>246</ele>
        <time>2019-07-20T10:55:41Z</time>
      </trkpt>
      <trkpt lat="49.11514" lon="6.10905">
        <ele>244</ele>
        <time>2019-07-20T10:55:43Z</time>
      </trkpt>
      <trkpt lat="49.11529" lon="6.1074">
        <ele>240</ele>
        <time>2019-07-20T10:55:56Z</time>
      </trkpt>
      <trkpt lat="49.11553" lon="6.1059">
        <ele>238</ele>
        <time>2019-07-20T10:56:09Z</time>
      </trkpt>
      <trkpt lat="49.11597" lon="6.10464">
        <ele>237</ele>
        <time>2019-07-20T10:56:23Z</time>
      </trkpt>
      <trkpt lat="49.11612" lon="6.10431">
        <ele>236</ele>
        <time>2019-07-20T10:56:27Z</time>
      </trkpt>
      <trkpt lat="49.11658" lon="6.10382">
        <ele>234</ele>
        <time>2019-07-20T10:56:37Z</time>
      </trkpt>
      <trkpt lat="49.11674" lon="6.10367">
        <ele>235</ele>
        <time>2019-07-20T10:56:41Z</time>
      </trkpt>
      <trkpt lat="49.11751" lon="6.10307">
        <ele>236</ele>
        <time>2019-07-20T10:56:57Z</time>
      </trkpt>
      <trkpt lat="49.11756" lon="6.10304">
        <ele>236</ele>
        <time>2019-07-20T10:56:58Z</time>
      </trkpt>
      <trkpt lat="49.11782" lon="6.10282">
        <ele>236</ele>
        <time>2019-07-20T10:57:05Z</time>
      </trkpt>
      <trkpt lat="49.11794" lon="6.10265">
        <ele>236</ele>
        <time>2019-07-20T10:57:09Z</time>
      </trkpt>
      <trkpt lat="49.11822" lon="6.10208">
        <ele>233</ele>
        <time>2019-07-20T10:57:24Z</time>
      </trkpt>
      <trkpt lat="49.11859" lon="6.10124">
        <ele>230</ele>
        <time>2019-07-20T10:57:34Z</time>
      </trkpt>
      <trkpt lat="49.119" lon="6.10038">
        <ele>224</ele>
        <time>2019-07-20T10:57:41Z</time>
      </trkpt>
      <trkpt lat="49.11921" lon="6.10009">
        <ele>224</ele>
        <time>2019-07-20T10:57:44Z</time>
      </trkpt>
      <trkpt lat="49.11961" lon="6.09983">
        <ele>223</ele>
        <time>2019-07-20T10:57:49Z</time>
      </trkpt>
      <trkpt lat="49.11992" lon="6.09916">
        <ele>222</ele>
        <time>2019-07-20T10:57:56Z</time>
      </trkpt>
      <trkpt lat="49.11992" lon="6.09904">
        <ele>221</ele>
        <time>2019-07-20T10:57:57Z</time>
      </trkpt>
      <trkpt lat="49.11987" lon="6.09834">
        <ele>219</ele>
        <time>2019-07-20T10:58:03Z</time>
      </trkpt>
      <trkpt lat="49.11996" lon="6.09803">
        <ele>218</ele>
        <time>2019-07-20T10:58:08Z</time>
      </trkpt>
      <trkpt lat="49.12012" lon="6.09782">
        <ele>220</ele>
        <time>2019-07-20T10:58:12Z</time>
      </trkpt>
      <trkpt lat="49.1202" lon="6.09749">
        <ele>221</ele>
        <time>2019-07-20T10:58:17Z</time>
      </trkpt>
      <trkpt lat="49.12021" lon="6.09711">
        <ele>223</ele>
        <time>2019-07-20T10:58:23Z</time>
      </trkpt>
      <trkpt lat="49.12019" lon="6.09647">
        <ele>229</ele>
        <time>2019-07-20T10:58:36Z</time>
      </trkpt>
      <trkpt lat="49.12009" lon="6.09604">
        <ele>232</ele>
        <time>2019-07-20T10:58:48Z</time>
      </trkpt>
      <trkpt lat="49.12005" lon="6.09576">
        <ele>236</ele>
        <time>2019-07-20T10:58:56Z</time>
      </trkpt>
      <trkpt lat="49.11999" lon="6.0957">
        <ele>234</ele>
        <time>2019-07-20T10:59:01Z</time>
      </trkpt>
      <trkpt lat="49.11963" lon="6.09603">
        <ele>230</ele>
        <time>2019-07-20T10:59:11Z</time>
      </trkpt>
      <trkpt lat="49.11885" lon="6.09658">
        <ele>226</ele>
        <time>2019-07-20T10:59:23Z</time>
      </trkpt>
      <trkpt lat="49.11862" lon="6.09658">
        <ele>226</ele>
        <time>2019-07-20T10:59:27Z</time>
      </trkpt>
      <trkpt lat="49.11828" lon="6.09648">
        <ele>225</ele>
        <time>2019-07-20T10:59:37Z</time>
      </trkpt>
      <trkpt lat="49.11812" lon="6.09664">
        <ele>224</ele>
        <time>2019-07-20T10:59:41Z</time>
      </trkpt>
      <trkpt lat="49.11729" lon="6.09721">
        <ele>217</ele>
        <time>2019-07-20T10:59:53Z</time>
      </trkpt>
      <trkpt lat="49.11604" lon="6.0981">
        <ele>210</ele>
        <time>2019-07-20T11:00:07Z</time>
      </trkpt>
      <trkpt lat="49.11565" lon="6.09831">
        <ele>207</ele>
        <time>2019-07-20T11:00:11Z</time>
      </trkpt>
      <trkpt lat="49.1147" lon="6.0982">
        <ele>199</ele>
        <time>2019-07-20T11:00:20Z</time>
      </trkpt>
      <trkpt lat="49.11336" lon="6.09761">
        <ele>189</ele>
        <time>2019-07-20T11:00:32Z</time>
      </trkpt>
      <trkpt lat="49.11326" lon="6.09752">
        <ele>187</ele>
        <time>2019-07-20T11:00:33Z</time>
      </trkpt>
      <trkpt lat="49.11287" lon="6.09711">
        <ele>185</ele>
        <time>2019-07-20T11:00:37Z</time>
      </trkpt>
      <trkpt lat="49.11226" lon="6.09705">
        <ele>183</ele>
        <time>2019-07-20T11:00:43Z</time>
      </trkpt>
      <trkpt lat="49.11152" lon="6.09806">
        <ele>182</ele>
        <time>2019-07-20T11:00:55Z</time>
      </trkpt>
      <trkpt lat="49.11085" lon="6.09881">
        <ele>182</ele>
        <time>2019-07-20T11:01:07Z</time>
      </trkpt>
      <trkpt lat="49.11065" lon="6.09885">
        <ele>182</ele>
        <time>2019-07-20T11:01:10Z</time>
      </trkpt>
      <trkpt lat="49.11048" lon="6.09884">
        <ele>181</ele>
        <time>2019-07-20T11:01:13Z</time>
      </trkpt>
      <trkpt lat="49.11041" lon="6.09855">
        <ele>181</ele>
        <time>2019-07-20T11:01:20Z</time>
      </trkpt>
      <trkpt lat="49.11043" lon="6.0985">
        <ele>181</ele>
        <time>2019-07-20T11:01:21Z</time>
      </trkpt>
      <trkpt lat="49.1106" lon="6.09793">
        <ele>181</ele>
        <time>2019-07-20T11:01:30Z</time>
      </trkpt>
      <trkpt lat="49.11062" lon="6.09768">
        <ele>181</ele>
        <time>2019-07-20T11:01:34Z</time>
      </trkpt>
      <trkpt lat="49.11044" lon="6.0975">
        <ele>182</ele>
        <time>2019-07-20T11:01:39Z</time>
      </trkpt>
      <trkpt lat="49.11022" lon="6.09765">
        <ele>181</ele>
        <time>2019-07-20T11:01:45Z</time>
      </trkpt>
      <trkpt lat="49.11025" lon="6.09774">
        <ele>181</ele>
        <time>2019-07-20T11:01:51Z</time>
      </trkpt>
      <trkpt lat="49.11027" lon="6.09771">
        <ele>181</ele>
        <time>2019-07-20T11:02:12Z</time>
      </trkpt>
      <trkpt lat="49.11026" lon="6.09771">
        <ele>181</ele>
        <time>2019-07-20T11:02:34Z</time>
      </trkpt>
      <trkpt lat="49.11023" lon="6.09771">
        <ele>181</ele>
        <time>2019-07-20T11:03:06Z</time>
      </trkpt>
      <trkpt lat="49.11024" lon="6.09773">
        <ele>181</ele>
        <time>2019-07-20T11:03:38Z</time>
      </trkpt>
      <trkpt lat="49.11026" lon="6.09773">
        <ele>181</ele>
        <time>2019-07-20T11:04:10Z</time>
      </trkpt>
      <trkpt lat="49.11026" lon="6.09775">
        <ele>181</ele>
        <time>2019-07-20T11:04:39Z</time>
      </trkpt>
      <trkpt lat="49.11026" lon="6.09776">
        <ele>181</ele>
        <time>2019-07-20T11:05:13Z</time>
      </trkpt>
      <trkpt lat="49.11025" lon="6.0977">
        <ele>181</ele>
        <time>2019-07-20T11:05:43Z</time>
      </trkpt>
      <trkpt lat="49.11025" lon="6.09767">
        <ele>181</ele>
        <time>2019-07-20T11:06:11Z</time>
      </trkpt>
      <trkpt lat="49.11026" lon="6.09767">
        <ele>181</ele>
        <time>2019-07-20T11:06:44Z</time>
      </trkpt>
      <trkpt lat="49.11027" lon="6.09767">
        <ele>181</ele>
        <time>2019-07-20T11:07:07Z</time>
      </trkpt>
      <trkpt lat="49.11026" lon="6.09767">
        <ele>181</ele>
        <time>2019-07-20T11:07:34Z</time>
      </trkpt>
      <trkpt lat="49.11026" lon="6.09769">
        <ele>181</ele>
        <time>2019-07-20T11:08:03Z</time>
      </trkpt>
      <trkpt lat="49.11025" lon="6.0977">
        <ele>181</ele>
        <time>2019-07-20T11:08:22Z</time>
      </trkpt>
      <trkpt lat="49.11024" lon="6.09768">
        <ele>181</ele>
        <time>2019-07-20T11:08:56Z</time>
      </trkpt>
      <trkpt lat="49.11025" lon="6.09767">
        <ele>181</ele>
        <time>2019-07-20T11:09:23Z</time>
      </trkpt>
      <trkpt lat="49.11026" lon="6.0977">
        <ele>181</ele>
        <time>2019-07-20T11:09:58Z</time>
      </trkpt>
      <trkpt lat="49.11025" lon="6.09774">
        <ele>181</ele>
        <time>2019-07-20T11:10:20Z</time>
      </trkpt>
      <trkpt lat="49.11024" lon="6.09774">
        <ele>181</ele>
        <time>2019-07-20T11:10:52Z</time>
      </trkpt>
      <trkpt lat="49.11025" lon="6.09778">
        <ele>181</ele>
        <time>2019-07-20T11:11:28Z</time>
      </trkpt>
      <trkpt lat="49.11024" lon="6.09777">
        <ele>181</ele>
        <time>2019-07-20T11:11:53Z</time>
      </trkpt>
      <trkpt lat="49.11025" lon="6.09778">
        <ele>181</ele>
        <time>2019-07-20T11:12:15Z</time>
      </trkpt>
      <trkpt lat="49.11027" lon="6.0978">
        <ele>181</ele>
        <time>2019-07-20T11:12:43Z</time>
      </trkpt>
      <trkpt lat="49.11028" lon="6.09781">
        <ele>181</ele>
        <time>2019-07-20T11:13:05Z</time>
      </trkpt>
      <trkpt lat="49.1103" lon="6.09783">
        <ele>181</ele>
        <time>2019-07-20T11:13:30Z</time>
      </trkpt>
      <trkpt lat="49.1103" lon="6.09785">
        <ele>181</ele>
        <time>2019-07-20T11:14:07Z</time>
      </trkpt>
      <trkpt lat="49.11031" lon="6.09785">
        <ele>181</ele>
        <time>2019-07-20T11:14:33Z</time>
      </trkpt>
      <trkpt lat="49.11031" lon="6.09783">
        <ele>181</ele>
        <time>2019-07-20T11:14:47Z</time>
      </trkpt>
      <trkpt lat="49.11031" lon="6.09782">
        <ele>181</ele>
        <time>2019-07-20T11:14:59Z</time>
      </trkpt>
      <trkpt lat="49.11032" lon="6.09778">
        <ele>181</ele>
        <time>2019-07-20T11:15:02Z</time>
      </trkpt>
      <trkpt lat="49.11032" lon="6.09769">
        <ele>181</ele>
        <time>2019-07-20T11:15:07Z</time>
      </trkpt>
      <trkpt lat="49.11037" lon="6.09764">
        <ele>181</ele>
        <time>2019-07-20T11:15:11Z</time>
      </trkpt>
      <trkpt lat="49.11063" lon="6.09772">
        <ele>181</ele>
        <time>2019-07-20T11:15:27Z</time>
      </trkpt>
      <trkpt lat="49.11067" lon="6.09767">
        <ele>181</ele>
        <time>2019-07-20T11:15:31Z</time>
      </trkpt>
      <trkpt lat="49.11088" lon="6.09727">
        <ele>183</ele>
        <time>2019-07-20T11:15:42Z</time>
      </trkpt>
      <trkpt lat="49.11092" lon="6.09716">
        <ele>183</ele>
        <time>2019-07-20T11:15:44Z</time>
      </trkpt>
      <trkpt lat="49.11113" lon="6.09664">
        <ele>185</ele>
        <time>2019-07-20T11:15:53Z</time>
      </trkpt>
      <trkpt lat="49.1115" lon="6.09557">
        <ele>188</ele>
        <time>2019-07-20T11:16:11Z</time>
      </trkpt>
      <trkpt lat="49.11172" lon="6.09472">
        <ele>186</ele>
        <time>2019-07-20T11:16:27Z</time>
      </trkpt>
      <trkpt lat="49.11165" lon="6.09387">
        <ele>192</ele>
        <time>2019-07-20T11:16:42Z</time>
      </trkpt>
      <trkpt lat="49.11141" lon="6.0931">
        <ele>193</ele>
        <time>2019-07-20T11:16:57Z</time>
      </trkpt>
      <trkpt lat="49.1112" lon="6.09241">
        <ele>193</ele>
        <time>2019-07-20T11:17:11Z</time>
      </trkpt>
      <trkpt lat="49.1109" lon="6.09181">
        <ele>192</ele>
        <time>2019-07-20T11:17:25Z</time>
      </trkpt>
      <trkpt lat="49.11038" lon="6.0914">
        <ele>193</ele>
        <time>2019-07-20T11:17:42Z</time>
      </trkpt>
      <trkpt lat="49.10988" lon="6.09114">
        <ele>196</ele>
        <time>2019-07-20T11:17:58Z</time>
      </trkpt>
      <trkpt lat="49.10951" lon="6.09095">
        <ele>196</ele>
        <time>2019-07-20T11:18:11Z</time>
      </trkpt>
      <trkpt lat="49.10895" lon="6.09067">
        <ele>198</ele>
        <time>2019-07-20T11:18:30Z</time>
      </trkpt>
      <trkpt lat="49.10852" lon="6.09045">
        <ele>200</ele>
        <time>2019-07-20T11:18:45Z</time>
      </trkpt>
      <trkpt lat="49.10809" lon="6.09021">
        <ele>204</ele>
        <time>2019-07-20T11:19:01Z</time>
      </trkpt>
      <trkpt lat="49.10772" lon="6.08994">
        <ele>204</ele>
        <time>2019-07-20T11:19:15Z</time>
      </trkpt>
      <trkpt lat="49.10729" lon="6.08942">
        <ele>210</ele>
        <time>2019-07-20T11:19:33Z</time>
      </trkpt>
      <trkpt lat="49.10695" lon="6.08891">
        <ele>211</ele>
        <time>2019-07-20T11:19:49Z</time>
      </trkpt>
      <trkpt lat="49.10669" lon="6.08841">
        <ele>214</ele>
        <time>2019-07-20T11:20:03Z</time>
      </trkpt>
      <trkpt lat="49.10644" lon="6.08787">
        <ele>217</ele>
        <time>2019-07-20T11:20:18Z</time>
      </trkpt>
      <trkpt lat="49.10626" lon="6.08745">
        <ele>216</ele>
        <time>2019-07-20T11:20:30Z</time>
      </trkpt>
      <trkpt lat="49.10603" lon="6.08702">
        <ele>216</ele>
        <time>2019-07-20T11:20:44Z</time>
      </trkpt>
      <trkpt lat="49.1057" lon="6.08651">
        <ele>221</ele>
        <time>2019-07-20T11:21:02Z</time>
      </trkpt>
      <trkpt lat="49.10559" lon="6.08636">
        <ele>222</ele>
        <time>2019-07-20T11:21:09Z</time>
      </trkpt>
      <trkpt lat="49.10551" lon="6.08638">
        <ele>223</ele>
        <time>2019-07-20T11:21:13Z</time>
      </trkpt>
      <trkpt lat="49.10547" lon="6.0868">
        <ele>223</ele>
        <time>2019-07-20T11:21:23Z</time>
      </trkpt>
      <trkpt lat="49.10552" lon="6.08736">
        <ele>223</ele>
        <time>2019-07-20T11:21:36Z</time>
      </trkpt>
      <trkpt lat="49.1054" lon="6.0879">
        <ele>225</ele>
        <time>2019-07-20T11:21:49Z</time>
      </trkpt>
      <trkpt lat="49.10532" lon="6.08808">
        <ele>225</ele>
        <time>2019-07-20T11:21:53Z</time>
      </trkpt>
      <trkpt lat="49.10509" lon="6.08802">
        <ele>225</ele>
        <time>2019-07-20T11:22:00Z</time>
      </trkpt>
      <trkpt lat="49.10459" lon="6.08777">
        <ele>228</ele>
        <time>2019-07-20T11:22:16Z</time>
      </trkpt>
      <trkpt lat="49.10395" lon="6.08767">
        <ele>230</ele>
        <time>2019-07-20T11:22:36Z</time>
      </trkpt>
      <trkpt lat="49.10362" lon="6.08749">
        <ele>234</ele>
        <time>2019-07-20T11:22:50Z</time>
      </trkpt>
      <trkpt lat="49.10346" lon="6.08729">
        <ele>235</ele>
        <time>2019-07-20T11:22:58Z</time>
      </trkpt>
      <trkpt lat="49.1034" lon="6.08726">
        <ele>235</ele>
        <time>2019-07-20T11:23:01Z</time>
      </trkpt>
      <trkpt lat="49.10335" lon="6.08728">
        <ele>235</ele>
        <time>2019-07-20T11:23:13Z</time>
      </trkpt>
      <trkpt lat="49.10336" lon="6.08728">
        <ele>235</ele>
        <time>2019-07-20T11:23:24Z</time>
      </trkpt>
      <trkpt lat="49.10333" lon="6.08739">
        <ele>235</ele>
        <time>2019-07-20T11:23:28Z</time>
      </trkpt>
      <trkpt lat="49.10325" lon="6.08773">
        <ele>231</ele>
        <time>2019-07-20T11:23:33Z</time>
      </trkpt>
      <trkpt lat="49.10325" lon="6.08821">
        <ele>229</ele>
        <time>2019-07-20T11:23:38Z</time>
      </trkpt>
      <trkpt lat="49.10318" lon="6.08853">
        <ele>226</ele>
        <time>2019-07-20T11:23:45Z</time>
      </trkpt>
      <trkpt lat="49.1027" lon="6.08807">
        <ele>230</ele>
        <time>2019-07-20T11:24:02Z</time>
      </trkpt>
      <trkpt lat="49.10229" lon="6.08772">
        <ele>230</ele>
        <time>2019-07-20T11:24:17Z</time>
      </trkpt>
      <trkpt lat="49.10195" lon="6.08746">
        <ele>233</ele>
        <time>2019-07-20T11:24:29Z</time>
      </trkpt>
      <trkpt lat="49.10191" lon="6.0874">
        <ele>233</ele>
        <time>2019-07-20T11:24:31Z</time>
      </trkpt>
      <trkpt lat="49.10184" lon="6.08735">
        <ele>232</ele>
        <time>2019-07-20T11:24:43Z</time>
      </trkpt>
      <trkpt lat="49.10184" lon="6.08735">
        <ele>232</ele>
        <time>2019-07-20T11:25:06Z</time>
      </trkpt>
      <trkpt lat="49.10184" lon="6.08736">
        <ele>232</ele>
        <time>2019-07-20T11:25:33Z</time>
      </trkpt>
      <trkpt lat="49.10184" lon="6.08736">
        <ele>232</ele>
        <time>2019-07-20T11:25:54Z</time>
      </trkpt>
    </trkseg>
  </trk>
</gpx>